<?xml version="1.0" encoding="UTF-8" standalone="no" ?>
<gpx xmlns="http://www.topografix.com/GPX/1/1" xmlns:xsi="http://www.w3.org/2001/XMLSchema-instance" xsi:schemaLocation="http://www.topografix.com/GPX/1/1 http://www.topografix.com/GPX/1/1/gpx.xsd" version="1.1" creator="VisuGPX - https://www.visugpx.com">
  <metadata>
    <name>La Vieille Loye (Baraques du 14) - Etang Sauget</name>
    <desc><![CDATA[Randonnée pédestre effectuée le 16 juin 2020.]]></desc>
  </metadata>
  <trk>
    <name><![CDATA[16 juin 2020 à 08:36:32]]></name>
    <extensions>
      <line xmlns="http://www.topografix.com/GPX/gpx_style/0/2">
        <color>0000FF</color>
        <width>4</width>
      </line>
    </extensions>
    <trkseg>
      <trkpt lat="47.05407" lon="5.63999">
        <ele>223</ele>
        <time>2020-06-16T06:36:32Z</time>
      </trkpt>
      <trkpt lat="47.054" lon="5.64008">
        <ele>223</ele>
        <time>2020-06-16T06:37:14Z</time>
      </trkpt>
      <trkpt lat="47.05405" lon="5.64012">
        <ele>223</ele>
        <time>2020-06-16T06:37:29Z</time>
      </trkpt>
      <trkpt lat="47.05413" lon="5.64017">
        <ele>224</ele>
        <time>2020-06-16T06:37:40Z</time>
      </trkpt>
      <trkpt lat="47.05417" lon="5.64026">
        <ele>225</ele>
        <time>2020-06-16T06:37:51Z</time>
      </trkpt>
      <trkpt lat="47.05424" lon="5.64072">
        <ele>227</ele>
        <time>2020-06-16T06:38:23Z</time>
      </trkpt>
      <trkpt lat="47.05425" lon="5.64081">
        <ele>227</ele>
        <time>2020-06-16T06:38:27Z</time>
      </trkpt>
      <trkpt lat="47.05434" lon="5.64093">
        <ele>228</ele>
        <time>2020-06-16T06:38:36Z</time>
      </trkpt>
      <trkpt lat="47.05444" lon="5.64103">
        <ele>228</ele>
        <time>2020-06-16T06:38:45Z</time>
      </trkpt>
      <trkpt lat="47.0545" lon="5.64104">
        <ele>229</ele>
        <time>2020-06-16T06:38:50Z</time>
      </trkpt>
      <trkpt lat="47.05464" lon="5.64115">
        <ele>230</ele>
        <time>2020-06-16T06:39:10Z</time>
      </trkpt>
      <trkpt lat="47.05471" lon="5.64116">
        <ele>230</ele>
        <time>2020-06-16T06:39:20Z</time>
      </trkpt>
      <trkpt lat="47.05476" lon="5.64121">
        <ele>230</ele>
        <time>2020-06-16T06:39:25Z</time>
      </trkpt>
      <trkpt lat="47.05487" lon="5.6414">
        <ele>230</ele>
        <time>2020-06-16T06:39:46Z</time>
      </trkpt>
      <trkpt lat="47.0549" lon="5.64156">
        <ele>230</ele>
        <time>2020-06-16T06:39:57Z</time>
      </trkpt>
      <trkpt lat="47.05496" lon="5.64177">
        <ele>230</ele>
        <time>2020-06-16T06:40:13Z</time>
      </trkpt>
      <trkpt lat="47.05508" lon="5.64223">
        <ele>228</ele>
        <time>2020-06-16T06:40:42Z</time>
      </trkpt>
      <trkpt lat="47.05506" lon="5.64232">
        <ele>228</ele>
        <time>2020-06-16T06:40:47Z</time>
      </trkpt>
      <trkpt lat="47.05506" lon="5.6425">
        <ele>227</ele>
        <time>2020-06-16T06:40:55Z</time>
      </trkpt>
      <trkpt lat="47.05521" lon="5.64303">
        <ele>226</ele>
        <time>2020-06-16T06:41:26Z</time>
      </trkpt>
      <trkpt lat="47.05523" lon="5.64312">
        <ele>225</ele>
        <time>2020-06-16T06:41:30Z</time>
      </trkpt>
      <trkpt lat="47.05527" lon="5.64322">
        <ele>225</ele>
        <time>2020-06-16T06:41:39Z</time>
      </trkpt>
      <trkpt lat="47.05529" lon="5.6433">
        <ele>225</ele>
        <time>2020-06-16T06:41:43Z</time>
      </trkpt>
      <trkpt lat="47.05543" lon="5.64348">
        <ele>225</ele>
        <time>2020-06-16T06:42:06Z</time>
      </trkpt>
      <trkpt lat="47.0555" lon="5.64348">
        <ele>225</ele>
        <time>2020-06-16T06:42:10Z</time>
      </trkpt>
      <trkpt lat="47.05554" lon="5.64342">
        <ele>225</ele>
        <time>2020-06-16T06:42:15Z</time>
      </trkpt>
      <trkpt lat="47.05555" lon="5.64357">
        <ele>224</ele>
        <time>2020-06-16T06:42:37Z</time>
      </trkpt>
      <trkpt lat="47.05555" lon="5.64367">
        <ele>223</ele>
        <time>2020-06-16T06:42:42Z</time>
      </trkpt>
      <trkpt lat="47.05559" lon="5.64384">
        <ele>223</ele>
        <time>2020-06-16T06:42:54Z</time>
      </trkpt>
      <trkpt lat="47.05582" lon="5.64432">
        <ele>223</ele>
        <time>2020-06-16T06:43:32Z</time>
      </trkpt>
      <trkpt lat="47.05588" lon="5.6445">
        <ele>223</ele>
        <time>2020-06-16T06:43:42Z</time>
      </trkpt>
      <trkpt lat="47.05596" lon="5.64466">
        <ele>222</ele>
        <time>2020-06-16T06:43:53Z</time>
      </trkpt>
      <trkpt lat="47.05602" lon="5.64469">
        <ele>222</ele>
        <time>2020-06-16T06:43:57Z</time>
      </trkpt>
      <trkpt lat="47.05609" lon="5.64484">
        <ele>223</ele>
        <time>2020-06-16T06:44:13Z</time>
      </trkpt>
      <trkpt lat="47.05617" lon="5.64488">
        <ele>224</ele>
        <time>2020-06-16T06:44:19Z</time>
      </trkpt>
      <trkpt lat="47.05624" lon="5.64497">
        <ele>224</ele>
        <time>2020-06-16T06:44:23Z</time>
      </trkpt>
      <trkpt lat="47.05638" lon="5.64506">
        <ele>225</ele>
        <time>2020-06-16T06:44:37Z</time>
      </trkpt>
      <trkpt lat="47.05648" lon="5.64535">
        <ele>226</ele>
        <time>2020-06-16T06:44:57Z</time>
      </trkpt>
      <trkpt lat="47.0567" lon="5.64566">
        <ele>228</ele>
        <time>2020-06-16T06:45:23Z</time>
      </trkpt>
      <trkpt lat="47.05703" lon="5.64613">
        <ele>229</ele>
        <time>2020-06-16T06:46:03Z</time>
      </trkpt>
      <trkpt lat="47.05722" lon="5.64632">
        <ele>229</ele>
        <time>2020-06-16T06:46:15Z</time>
      </trkpt>
      <trkpt lat="47.05727" lon="5.6464">
        <ele>229</ele>
        <time>2020-06-16T06:46:21Z</time>
      </trkpt>
      <trkpt lat="47.05737" lon="5.64662">
        <ele>229</ele>
        <time>2020-06-16T06:46:34Z</time>
      </trkpt>
      <trkpt lat="47.05742" lon="5.6467">
        <ele>229</ele>
        <time>2020-06-16T06:46:43Z</time>
      </trkpt>
      <trkpt lat="47.0576" lon="5.64684">
        <ele>230</ele>
        <time>2020-06-16T06:47:02Z</time>
      </trkpt>
      <trkpt lat="47.05767" lon="5.64688">
        <ele>230</ele>
        <time>2020-06-16T06:47:08Z</time>
      </trkpt>
      <trkpt lat="47.05773" lon="5.64695">
        <ele>230</ele>
        <time>2020-06-16T06:47:16Z</time>
      </trkpt>
      <trkpt lat="47.0578" lon="5.64699">
        <ele>230</ele>
        <time>2020-06-16T06:47:25Z</time>
      </trkpt>
      <trkpt lat="47.05785" lon="5.64715">
        <ele>230</ele>
        <time>2020-06-16T06:47:38Z</time>
      </trkpt>
      <trkpt lat="47.05789" lon="5.64731">
        <ele>230</ele>
        <time>2020-06-16T06:47:53Z</time>
      </trkpt>
      <trkpt lat="47.05796" lon="5.64736">
        <ele>230</ele>
        <time>2020-06-16T06:47:59Z</time>
      </trkpt>
      <trkpt lat="47.05801" lon="5.64745">
        <ele>230</ele>
        <time>2020-06-16T06:48:03Z</time>
      </trkpt>
      <trkpt lat="47.05809" lon="5.64749">
        <ele>230</ele>
        <time>2020-06-16T06:48:08Z</time>
      </trkpt>
      <trkpt lat="47.05822" lon="5.64755">
        <ele>230</ele>
        <time>2020-06-16T06:48:19Z</time>
      </trkpt>
      <trkpt lat="47.05837" lon="5.64761">
        <ele>231</ele>
        <time>2020-06-16T06:48:33Z</time>
      </trkpt>
      <trkpt lat="47.05843" lon="5.64768">
        <ele>231</ele>
        <time>2020-06-16T06:48:38Z</time>
      </trkpt>
      <trkpt lat="47.05847" lon="5.64776">
        <ele>231</ele>
        <time>2020-06-16T06:48:42Z</time>
      </trkpt>
      <trkpt lat="47.05852" lon="5.64779">
        <ele>231</ele>
        <time>2020-06-16T06:48:46Z</time>
      </trkpt>
      <trkpt lat="47.05857" lon="5.64785">
        <ele>232</ele>
        <time>2020-06-16T06:48:49Z</time>
      </trkpt>
      <trkpt lat="47.05864" lon="5.64788">
        <ele>232</ele>
        <time>2020-06-16T06:48:53Z</time>
      </trkpt>
      <trkpt lat="47.05885" lon="5.64819">
        <ele>232</ele>
        <time>2020-06-16T06:49:18Z</time>
      </trkpt>
      <trkpt lat="47.05891" lon="5.64821">
        <ele>232</ele>
        <time>2020-06-16T06:49:23Z</time>
      </trkpt>
      <trkpt lat="47.05896" lon="5.64827">
        <ele>232</ele>
        <time>2020-06-16T06:49:29Z</time>
      </trkpt>
      <trkpt lat="47.05907" lon="5.64831">
        <ele>232</ele>
        <time>2020-06-16T06:49:41Z</time>
      </trkpt>
      <trkpt lat="47.05913" lon="5.64838">
        <ele>232</ele>
        <time>2020-06-16T06:49:47Z</time>
      </trkpt>
      <trkpt lat="47.05921" lon="5.64858">
        <ele>232</ele>
        <time>2020-06-16T06:50:00Z</time>
      </trkpt>
      <trkpt lat="47.05926" lon="5.64871">
        <ele>232</ele>
        <time>2020-06-16T06:50:10Z</time>
      </trkpt>
      <trkpt lat="47.05954" lon="5.64903">
        <ele>232</ele>
        <time>2020-06-16T06:50:34Z</time>
      </trkpt>
      <trkpt lat="47.05959" lon="5.64915">
        <ele>232</ele>
        <time>2020-06-16T06:50:46Z</time>
      </trkpt>
      <trkpt lat="47.05964" lon="5.64923">
        <ele>232</ele>
        <time>2020-06-16T06:50:51Z</time>
      </trkpt>
      <trkpt lat="47.05976" lon="5.64932">
        <ele>232</ele>
        <time>2020-06-16T06:50:59Z</time>
      </trkpt>
      <trkpt lat="47.05993" lon="5.64933">
        <ele>232</ele>
        <time>2020-06-16T06:51:13Z</time>
      </trkpt>
      <trkpt lat="47.06005" lon="5.64928">
        <ele>231</ele>
        <time>2020-06-16T06:51:22Z</time>
      </trkpt>
      <trkpt lat="47.06011" lon="5.64929">
        <ele>231</ele>
        <time>2020-06-16T06:51:26Z</time>
      </trkpt>
      <trkpt lat="47.06025" lon="5.64921">
        <ele>231</ele>
        <time>2020-06-16T06:51:38Z</time>
      </trkpt>
      <trkpt lat="47.0603" lon="5.64921">
        <ele>231</ele>
        <time>2020-06-16T06:51:43Z</time>
      </trkpt>
      <trkpt lat="47.06054" lon="5.64909">
        <ele>231</ele>
        <time>2020-06-16T06:52:04Z</time>
      </trkpt>
      <trkpt lat="47.06062" lon="5.64909">
        <ele>231</ele>
        <time>2020-06-16T06:52:10Z</time>
      </trkpt>
      <trkpt lat="47.06085" lon="5.64904">
        <ele>232</ele>
        <time>2020-06-16T06:52:30Z</time>
      </trkpt>
      <trkpt lat="47.06101" lon="5.64904">
        <ele>233</ele>
        <time>2020-06-16T06:52:43Z</time>
      </trkpt>
      <trkpt lat="47.06108" lon="5.64902">
        <ele>233</ele>
        <time>2020-06-16T06:52:48Z</time>
      </trkpt>
      <trkpt lat="47.06115" lon="5.64896">
        <ele>234</ele>
        <time>2020-06-16T06:52:54Z</time>
      </trkpt>
      <trkpt lat="47.06144" lon="5.64894">
        <ele>235</ele>
        <time>2020-06-16T06:53:17Z</time>
      </trkpt>
      <trkpt lat="47.06188" lon="5.64878">
        <ele>238</ele>
        <time>2020-06-16T06:53:52Z</time>
      </trkpt>
      <trkpt lat="47.06217" lon="5.64872">
        <ele>239</ele>
        <time>2020-06-16T06:54:17Z</time>
      </trkpt>
      <trkpt lat="47.06224" lon="5.64869">
        <ele>240</ele>
        <time>2020-06-16T06:54:23Z</time>
      </trkpt>
      <trkpt lat="47.06235" lon="5.64865">
        <ele>240</ele>
        <time>2020-06-16T06:54:32Z</time>
      </trkpt>
      <trkpt lat="47.0624" lon="5.64862">
        <ele>240</ele>
        <time>2020-06-16T06:54:37Z</time>
      </trkpt>
      <trkpt lat="47.06258" lon="5.64858">
        <ele>241</ele>
        <time>2020-06-16T06:54:49Z</time>
      </trkpt>
      <trkpt lat="47.06281" lon="5.64849">
        <ele>242</ele>
        <time>2020-06-16T06:55:07Z</time>
      </trkpt>
      <trkpt lat="47.06304" lon="5.64848">
        <ele>242</ele>
        <time>2020-06-16T06:55:27Z</time>
      </trkpt>
      <trkpt lat="47.06346" lon="5.6483">
        <ele>244</ele>
        <time>2020-06-16T06:56:00Z</time>
      </trkpt>
      <trkpt lat="47.06357" lon="5.64827">
        <ele>244</ele>
        <time>2020-06-16T06:56:10Z</time>
      </trkpt>
      <trkpt lat="47.06363" lon="5.64828">
        <ele>244</ele>
        <time>2020-06-16T06:56:14Z</time>
      </trkpt>
      <trkpt lat="47.06379" lon="5.64823">
        <ele>245</ele>
        <time>2020-06-16T06:56:26Z</time>
      </trkpt>
      <trkpt lat="47.06385" lon="5.64819">
        <ele>245</ele>
        <time>2020-06-16T06:56:31Z</time>
      </trkpt>
      <trkpt lat="47.0639" lon="5.64819">
        <ele>245</ele>
        <time>2020-06-16T06:56:35Z</time>
      </trkpt>
      <trkpt lat="47.06395" lon="5.64815">
        <ele>245</ele>
        <time>2020-06-16T06:56:38Z</time>
      </trkpt>
      <trkpt lat="47.0642" lon="5.64818">
        <ele>246</ele>
        <time>2020-06-16T06:56:58Z</time>
      </trkpt>
      <trkpt lat="47.06427" lon="5.64815">
        <ele>246</ele>
        <time>2020-06-16T06:57:02Z</time>
      </trkpt>
      <trkpt lat="47.06434" lon="5.64817">
        <ele>246</ele>
        <time>2020-06-16T06:57:06Z</time>
      </trkpt>
      <trkpt lat="47.06481" lon="5.648">
        <ele>247</ele>
        <time>2020-06-16T06:57:39Z</time>
      </trkpt>
      <trkpt lat="47.06492" lon="5.64792">
        <ele>247</ele>
        <time>2020-06-16T06:57:48Z</time>
      </trkpt>
      <trkpt lat="47.06527" lon="5.64783">
        <ele>248</ele>
        <time>2020-06-16T06:58:18Z</time>
      </trkpt>
      <trkpt lat="47.06537" lon="5.64775">
        <ele>249</ele>
        <time>2020-06-16T06:58:29Z</time>
      </trkpt>
      <trkpt lat="47.06577" lon="5.64768">
        <ele>249</ele>
        <time>2020-06-16T06:59:01Z</time>
      </trkpt>
      <trkpt lat="47.06619" lon="5.64758">
        <ele>249</ele>
        <time>2020-06-16T06:59:34Z</time>
      </trkpt>
      <trkpt lat="47.06632" lon="5.64756">
        <ele>249</ele>
        <time>2020-06-16T06:59:43Z</time>
      </trkpt>
      <trkpt lat="47.06637" lon="5.64753">
        <ele>248</ele>
        <time>2020-06-16T06:59:49Z</time>
      </trkpt>
      <trkpt lat="47.06644" lon="5.64752">
        <ele>248</ele>
        <time>2020-06-16T06:59:55Z</time>
      </trkpt>
      <trkpt lat="47.06656" lon="5.64748">
        <ele>248</ele>
        <time>2020-06-16T07:00:04Z</time>
      </trkpt>
      <trkpt lat="47.06698" lon="5.64742">
        <ele>247</ele>
        <time>2020-06-16T07:00:39Z</time>
      </trkpt>
      <trkpt lat="47.06702" lon="5.64736">
        <ele>247</ele>
        <time>2020-06-16T07:00:43Z</time>
      </trkpt>
      <trkpt lat="47.06708" lon="5.64733">
        <ele>247</ele>
        <time>2020-06-16T07:00:46Z</time>
      </trkpt>
      <trkpt lat="47.06716" lon="5.64732">
        <ele>247</ele>
        <time>2020-06-16T07:00:50Z</time>
      </trkpt>
      <trkpt lat="47.06721" lon="5.64733">
        <ele>247</ele>
        <time>2020-06-16T07:00:52Z</time>
      </trkpt>
      <trkpt lat="47.06726" lon="5.64732">
        <ele>247</ele>
        <time>2020-06-16T07:00:56Z</time>
      </trkpt>
      <trkpt lat="47.06732" lon="5.64731">
        <ele>246</ele>
        <time>2020-06-16T07:01:00Z</time>
      </trkpt>
      <trkpt lat="47.06737" lon="5.64724">
        <ele>247</ele>
        <time>2020-06-16T07:01:12Z</time>
      </trkpt>
      <trkpt lat="47.0673" lon="5.64721">
        <ele>247</ele>
        <time>2020-06-16T07:01:25Z</time>
      </trkpt>
      <trkpt lat="47.06708" lon="5.64722">
        <ele>248</ele>
        <time>2020-06-16T07:01:44Z</time>
      </trkpt>
      <trkpt lat="47.06697" lon="5.64727">
        <ele>248</ele>
        <time>2020-06-16T07:01:52Z</time>
      </trkpt>
      <trkpt lat="47.06675" lon="5.64727">
        <ele>249</ele>
        <time>2020-06-16T07:02:13Z</time>
      </trkpt>
      <trkpt lat="47.06672" lon="5.64738">
        <ele>249</ele>
        <time>2020-06-16T07:02:22Z</time>
      </trkpt>
      <trkpt lat="47.0667" lon="5.6476">
        <ele>248</ele>
        <time>2020-06-16T07:02:39Z</time>
      </trkpt>
      <trkpt lat="47.0667" lon="5.64771">
        <ele>248</ele>
        <time>2020-06-16T07:02:45Z</time>
      </trkpt>
      <trkpt lat="47.06678" lon="5.64789">
        <ele>248</ele>
        <time>2020-06-16T07:02:55Z</time>
      </trkpt>
      <trkpt lat="47.06677" lon="5.64798">
        <ele>248</ele>
        <time>2020-06-16T07:03:00Z</time>
      </trkpt>
      <trkpt lat="47.06677" lon="5.64806">
        <ele>248</ele>
        <time>2020-06-16T07:03:05Z</time>
      </trkpt>
      <trkpt lat="47.0668" lon="5.64814">
        <ele>248</ele>
        <time>2020-06-16T07:03:11Z</time>
      </trkpt>
      <trkpt lat="47.06684" lon="5.64851">
        <ele>247</ele>
        <time>2020-06-16T07:03:32Z</time>
      </trkpt>
      <trkpt lat="47.06687" lon="5.6486">
        <ele>247</ele>
        <time>2020-06-16T07:03:37Z</time>
      </trkpt>
      <trkpt lat="47.06696" lon="5.64878">
        <ele>247</ele>
        <time>2020-06-16T07:03:49Z</time>
      </trkpt>
      <trkpt lat="47.06709" lon="5.64937">
        <ele>246</ele>
        <time>2020-06-16T07:04:21Z</time>
      </trkpt>
      <trkpt lat="47.06712" lon="5.64945">
        <ele>246</ele>
        <time>2020-06-16T07:04:24Z</time>
      </trkpt>
      <trkpt lat="47.06714" lon="5.64967">
        <ele>245</ele>
        <time>2020-06-16T07:04:39Z</time>
      </trkpt>
      <trkpt lat="47.06733" lon="5.65022">
        <ele>244</ele>
        <time>2020-06-16T07:05:11Z</time>
      </trkpt>
      <trkpt lat="47.06737" lon="5.65048">
        <ele>243</ele>
        <time>2020-06-16T07:05:27Z</time>
      </trkpt>
      <trkpt lat="47.06741" lon="5.65057">
        <ele>243</ele>
        <time>2020-06-16T07:05:33Z</time>
      </trkpt>
      <trkpt lat="47.06749" lon="5.65106">
        <ele>242</ele>
        <time>2020-06-16T07:05:57Z</time>
      </trkpt>
      <trkpt lat="47.06766" lon="5.65164">
        <ele>239</ele>
        <time>2020-06-16T07:06:30Z</time>
      </trkpt>
      <trkpt lat="47.06768" lon="5.65173">
        <ele>239</ele>
        <time>2020-06-16T07:06:35Z</time>
      </trkpt>
      <trkpt lat="47.06773" lon="5.65197">
        <ele>238</ele>
        <time>2020-06-16T07:06:51Z</time>
      </trkpt>
      <trkpt lat="47.06765" lon="5.65219">
        <ele>237</ele>
        <time>2020-06-16T07:07:09Z</time>
      </trkpt>
      <trkpt lat="47.06762" lon="5.65227">
        <ele>237</ele>
        <time>2020-06-16T07:07:14Z</time>
      </trkpt>
      <trkpt lat="47.0676" lon="5.65235">
        <ele>236</ele>
        <time>2020-06-16T07:07:19Z</time>
      </trkpt>
      <trkpt lat="47.06762" lon="5.65275">
        <ele>235</ele>
        <time>2020-06-16T07:07:37Z</time>
      </trkpt>
      <trkpt lat="47.06766" lon="5.6529">
        <ele>235</ele>
        <time>2020-06-16T07:07:46Z</time>
      </trkpt>
      <trkpt lat="47.06773" lon="5.65302">
        <ele>234</ele>
        <time>2020-06-16T07:07:56Z</time>
      </trkpt>
      <trkpt lat="47.06779" lon="5.65307">
        <ele>234</ele>
        <time>2020-06-16T07:08:03Z</time>
      </trkpt>
      <trkpt lat="47.06791" lon="5.6531">
        <ele>234</ele>
        <time>2020-06-16T07:08:26Z</time>
      </trkpt>
      <trkpt lat="47.06794" lon="5.65317">
        <ele>234</ele>
        <time>2020-06-16T07:08:30Z</time>
      </trkpt>
      <trkpt lat="47.06799" lon="5.65326">
        <ele>234</ele>
        <time>2020-06-16T07:08:52Z</time>
      </trkpt>
      <trkpt lat="47.06805" lon="5.65333">
        <ele>234</ele>
        <time>2020-06-16T07:09:10Z</time>
      </trkpt>
      <trkpt lat="47.06833" lon="5.65379">
        <ele>234</ele>
        <time>2020-06-16T07:09:41Z</time>
      </trkpt>
      <trkpt lat="47.06837" lon="5.65383">
        <ele>234</ele>
        <time>2020-06-16T07:09:47Z</time>
      </trkpt>
      <trkpt lat="47.06843" lon="5.65391">
        <ele>234</ele>
        <time>2020-06-16T07:10:18Z</time>
      </trkpt>
      <trkpt lat="47.0685" lon="5.654">
        <ele>234</ele>
        <time>2020-06-16T07:10:28Z</time>
      </trkpt>
      <trkpt lat="47.06854" lon="5.65403">
        <ele>234</ele>
        <time>2020-06-16T07:10:40Z</time>
      </trkpt>
      <trkpt lat="47.06858" lon="5.65409">
        <ele>233</ele>
        <time>2020-06-16T07:11:22Z</time>
      </trkpt>
      <trkpt lat="47.06858" lon="5.65422">
        <ele>234</ele>
        <time>2020-06-16T07:11:34Z</time>
      </trkpt>
      <trkpt lat="47.06866" lon="5.65426">
        <ele>234</ele>
        <time>2020-06-16T07:11:52Z</time>
      </trkpt>
      <trkpt lat="47.06877" lon="5.65407">
        <ele>235</ele>
        <time>2020-06-16T07:12:10Z</time>
      </trkpt>
      <trkpt lat="47.06882" lon="5.65397">
        <ele>236</ele>
        <time>2020-06-16T07:12:17Z</time>
      </trkpt>
      <trkpt lat="47.06888" lon="5.65389">
        <ele>236</ele>
        <time>2020-06-16T07:12:29Z</time>
      </trkpt>
      <trkpt lat="47.06899" lon="5.6538">
        <ele>236</ele>
        <time>2020-06-16T07:12:47Z</time>
      </trkpt>
      <trkpt lat="47.06922" lon="5.65372">
        <ele>236</ele>
        <time>2020-06-16T07:13:03Z</time>
      </trkpt>
      <trkpt lat="47.06929" lon="5.65374">
        <ele>236</ele>
        <time>2020-06-16T07:13:10Z</time>
      </trkpt>
      <trkpt lat="47.06943" lon="5.65367">
        <ele>236</ele>
        <time>2020-06-16T07:13:25Z</time>
      </trkpt>
      <trkpt lat="47.0696" lon="5.6537">
        <ele>239</ele>
        <time>2020-06-16T07:13:48Z</time>
      </trkpt>
      <trkpt lat="47.06968" lon="5.65372">
        <ele>240</ele>
        <time>2020-06-16T07:13:55Z</time>
      </trkpt>
      <trkpt lat="47.06974" lon="5.65371">
        <ele>241</ele>
        <time>2020-06-16T07:14:00Z</time>
      </trkpt>
      <trkpt lat="47.06982" lon="5.65367">
        <ele>241</ele>
        <time>2020-06-16T07:14:09Z</time>
      </trkpt>
      <trkpt lat="47.07019" lon="5.65357">
        <ele>244</ele>
        <time>2020-06-16T07:14:45Z</time>
      </trkpt>
      <trkpt lat="47.07054" lon="5.65345">
        <ele>245</ele>
        <time>2020-06-16T07:15:23Z</time>
      </trkpt>
      <trkpt lat="47.07071" lon="5.65345">
        <ele>245</ele>
        <time>2020-06-16T07:15:37Z</time>
      </trkpt>
      <trkpt lat="47.07077" lon="5.65341">
        <ele>245</ele>
        <time>2020-06-16T07:15:43Z</time>
      </trkpt>
      <trkpt lat="47.07085" lon="5.65335">
        <ele>245</ele>
        <time>2020-06-16T07:15:48Z</time>
      </trkpt>
      <trkpt lat="47.07109" lon="5.65333">
        <ele>246</ele>
        <time>2020-06-16T07:16:06Z</time>
      </trkpt>
      <trkpt lat="47.07114" lon="5.65329">
        <ele>246</ele>
        <time>2020-06-16T07:16:11Z</time>
      </trkpt>
      <trkpt lat="47.07135" lon="5.65322">
        <ele>246</ele>
        <time>2020-06-16T07:16:32Z</time>
      </trkpt>
      <trkpt lat="47.07139" lon="5.65314">
        <ele>246</ele>
        <time>2020-06-16T07:16:37Z</time>
      </trkpt>
      <trkpt lat="47.07154" lon="5.65306">
        <ele>247</ele>
        <time>2020-06-16T07:17:13Z</time>
      </trkpt>
      <trkpt lat="47.07159" lon="5.65295">
        <ele>247</ele>
        <time>2020-06-16T07:17:20Z</time>
      </trkpt>
      <trkpt lat="47.07159" lon="5.65302">
        <ele>247</ele>
        <time>2020-06-16T07:18:04Z</time>
      </trkpt>
      <trkpt lat="47.07147" lon="5.65301">
        <ele>247</ele>
        <time>2020-06-16T07:18:13Z</time>
      </trkpt>
      <trkpt lat="47.07141" lon="5.65303">
        <ele>247</ele>
        <time>2020-06-16T07:18:17Z</time>
      </trkpt>
      <trkpt lat="47.07132" lon="5.65312">
        <ele>246</ele>
        <time>2020-06-16T07:18:31Z</time>
      </trkpt>
      <trkpt lat="47.07132" lon="5.65322">
        <ele>246</ele>
        <time>2020-06-16T07:18:36Z</time>
      </trkpt>
      <trkpt lat="47.07136" lon="5.6533">
        <ele>246</ele>
        <time>2020-06-16T07:18:46Z</time>
      </trkpt>
      <trkpt lat="47.07136" lon="5.65345">
        <ele>246</ele>
        <time>2020-06-16T07:19:06Z</time>
      </trkpt>
      <trkpt lat="47.07135" lon="5.65352">
        <ele>246</ele>
        <time>2020-06-16T07:19:11Z</time>
      </trkpt>
      <trkpt lat="47.07141" lon="5.65398">
        <ele>246</ele>
        <time>2020-06-16T07:19:42Z</time>
      </trkpt>
      <trkpt lat="47.07156" lon="5.65452">
        <ele>246</ele>
        <time>2020-06-16T07:20:13Z</time>
      </trkpt>
      <trkpt lat="47.07158" lon="5.65461">
        <ele>246</ele>
        <time>2020-06-16T07:20:23Z</time>
      </trkpt>
      <trkpt lat="47.07167" lon="5.65482">
        <ele>246</ele>
        <time>2020-06-16T07:20:41Z</time>
      </trkpt>
      <trkpt lat="47.07172" lon="5.65492">
        <ele>246</ele>
        <time>2020-06-16T07:20:52Z</time>
      </trkpt>
      <trkpt lat="47.07174" lon="5.65509">
        <ele>246</ele>
        <time>2020-06-16T07:21:06Z</time>
      </trkpt>
      <trkpt lat="47.07173" lon="5.65522">
        <ele>246</ele>
        <time>2020-06-16T07:21:20Z</time>
      </trkpt>
      <trkpt lat="47.07181" lon="5.65562">
        <ele>246</ele>
        <time>2020-06-16T07:21:47Z</time>
      </trkpt>
      <trkpt lat="47.07186" lon="5.65572">
        <ele>245</ele>
        <time>2020-06-16T07:21:58Z</time>
      </trkpt>
      <trkpt lat="47.07189" lon="5.65579">
        <ele>245</ele>
        <time>2020-06-16T07:22:04Z</time>
      </trkpt>
      <trkpt lat="47.07193" lon="5.65591">
        <ele>247</ele>
        <time>2020-06-16T07:22:17Z</time>
      </trkpt>
      <trkpt lat="47.07195" lon="5.65599">
        <ele>248</ele>
        <time>2020-06-16T07:22:22Z</time>
      </trkpt>
      <trkpt lat="47.07195" lon="5.65614">
        <ele>248</ele>
        <time>2020-06-16T07:22:33Z</time>
      </trkpt>
      <trkpt lat="47.07198" lon="5.6563">
        <ele>248</ele>
        <time>2020-06-16T07:22:43Z</time>
      </trkpt>
      <trkpt lat="47.07197" lon="5.6564">
        <ele>249</ele>
        <time>2020-06-16T07:22:52Z</time>
      </trkpt>
      <trkpt lat="47.07199" lon="5.6565">
        <ele>249</ele>
        <time>2020-06-16T07:22:56Z</time>
      </trkpt>
      <trkpt lat="47.07201" lon="5.65657">
        <ele>249</ele>
        <time>2020-06-16T07:23:00Z</time>
      </trkpt>
      <trkpt lat="47.07205" lon="5.65676">
        <ele>249</ele>
        <time>2020-06-16T07:23:12Z</time>
      </trkpt>
      <trkpt lat="47.0721" lon="5.65683">
        <ele>249</ele>
        <time>2020-06-16T07:23:19Z</time>
      </trkpt>
      <trkpt lat="47.07228" lon="5.65736">
        <ele>250</ele>
        <time>2020-06-16T07:23:53Z</time>
      </trkpt>
      <trkpt lat="47.0723" lon="5.65755">
        <ele>250</ele>
        <time>2020-06-16T07:24:04Z</time>
      </trkpt>
      <trkpt lat="47.07232" lon="5.65764">
        <ele>250</ele>
        <time>2020-06-16T07:24:09Z</time>
      </trkpt>
      <trkpt lat="47.07236" lon="5.65805">
        <ele>250</ele>
        <time>2020-06-16T07:24:34Z</time>
      </trkpt>
      <trkpt lat="47.07247" lon="5.65847">
        <ele>250</ele>
        <time>2020-06-16T07:25:07Z</time>
      </trkpt>
      <trkpt lat="47.07249" lon="5.65866">
        <ele>250</ele>
        <time>2020-06-16T07:25:16Z</time>
      </trkpt>
      <trkpt lat="47.0726" lon="5.65894">
        <ele>249</ele>
        <time>2020-06-16T07:25:36Z</time>
      </trkpt>
      <trkpt lat="47.0726" lon="5.65904">
        <ele>248</ele>
        <time>2020-06-16T07:25:43Z</time>
      </trkpt>
      <trkpt lat="47.07263" lon="5.65924">
        <ele>248</ele>
        <time>2020-06-16T07:25:57Z</time>
      </trkpt>
      <trkpt lat="47.07268" lon="5.65932">
        <ele>247</ele>
        <time>2020-06-16T07:26:01Z</time>
      </trkpt>
      <trkpt lat="47.0727" lon="5.6594">
        <ele>247</ele>
        <time>2020-06-16T07:26:05Z</time>
      </trkpt>
      <trkpt lat="47.07278" lon="5.65955">
        <ele>246</ele>
        <time>2020-06-16T07:26:23Z</time>
      </trkpt>
      <trkpt lat="47.07284" lon="5.65959">
        <ele>246</ele>
        <time>2020-06-16T07:27:16Z</time>
      </trkpt>
      <trkpt lat="47.07289" lon="5.65961">
        <ele>246</ele>
        <time>2020-06-16T07:27:23Z</time>
      </trkpt>
      <trkpt lat="47.07295" lon="5.65955">
        <ele>247</ele>
        <time>2020-06-16T07:28:21Z</time>
      </trkpt>
      <trkpt lat="47.07313" lon="5.65954">
        <ele>247</ele>
        <time>2020-06-16T07:28:53Z</time>
      </trkpt>
      <trkpt lat="47.07352" lon="5.65941">
        <ele>247</ele>
        <time>2020-06-16T07:29:24Z</time>
      </trkpt>
      <trkpt lat="47.07376" lon="5.65938">
        <ele>248</ele>
        <time>2020-06-16T07:29:42Z</time>
      </trkpt>
      <trkpt lat="47.07389" lon="5.65933">
        <ele>248</ele>
        <time>2020-06-16T07:29:53Z</time>
      </trkpt>
      <trkpt lat="47.0741" lon="5.65932">
        <ele>249</ele>
        <time>2020-06-16T07:30:09Z</time>
      </trkpt>
      <trkpt lat="47.07428" lon="5.65925">
        <ele>249</ele>
        <time>2020-06-16T07:30:23Z</time>
      </trkpt>
      <trkpt lat="47.0743" lon="5.65934">
        <ele>250</ele>
        <time>2020-06-16T07:30:48Z</time>
      </trkpt>
      <trkpt lat="47.07436" lon="5.65921">
        <ele>250</ele>
        <time>2020-06-16T07:31:34Z</time>
      </trkpt>
      <trkpt lat="47.07468" lon="5.65901">
        <ele>251</ele>
        <time>2020-06-16T07:32:05Z</time>
      </trkpt>
      <trkpt lat="47.07497" lon="5.65897">
        <ele>252</ele>
        <time>2020-06-16T07:32:29Z</time>
      </trkpt>
      <trkpt lat="47.07504" lon="5.65899">
        <ele>252</ele>
        <time>2020-06-16T07:32:34Z</time>
      </trkpt>
      <trkpt lat="47.07545" lon="5.65891">
        <ele>253</ele>
        <time>2020-06-16T07:33:07Z</time>
      </trkpt>
      <trkpt lat="47.07551" lon="5.65888">
        <ele>253</ele>
        <time>2020-06-16T07:33:11Z</time>
      </trkpt>
      <trkpt lat="47.07556" lon="5.65888">
        <ele>253</ele>
        <time>2020-06-16T07:33:15Z</time>
      </trkpt>
      <trkpt lat="47.0756" lon="5.65882">
        <ele>253</ele>
        <time>2020-06-16T07:33:19Z</time>
      </trkpt>
      <trkpt lat="47.07588" lon="5.65876">
        <ele>254</ele>
        <time>2020-06-16T07:33:47Z</time>
      </trkpt>
      <trkpt lat="47.07628" lon="5.65861">
        <ele>254</ele>
        <time>2020-06-16T07:34:18Z</time>
      </trkpt>
      <trkpt lat="47.07638" lon="5.6586">
        <ele>254</ele>
        <time>2020-06-16T07:34:27Z</time>
      </trkpt>
      <trkpt lat="47.07645" lon="5.65855">
        <ele>254</ele>
        <time>2020-06-16T07:34:33Z</time>
      </trkpt>
      <trkpt lat="47.07659" lon="5.65851">
        <ele>254</ele>
        <time>2020-06-16T07:34:44Z</time>
      </trkpt>
      <trkpt lat="47.07672" lon="5.65846">
        <ele>255</ele>
        <time>2020-06-16T07:34:56Z</time>
      </trkpt>
      <trkpt lat="47.07678" lon="5.65842">
        <ele>254</ele>
        <time>2020-06-16T07:35:04Z</time>
      </trkpt>
      <trkpt lat="47.07692" lon="5.65837">
        <ele>254</ele>
        <time>2020-06-16T07:35:20Z</time>
      </trkpt>
      <trkpt lat="47.07697" lon="5.65838">
        <ele>254</ele>
        <time>2020-06-16T07:35:24Z</time>
      </trkpt>
      <trkpt lat="47.07725" lon="5.65826">
        <ele>254</ele>
        <time>2020-06-16T07:35:43Z</time>
      </trkpt>
      <trkpt lat="47.07739" lon="5.65826">
        <ele>254</ele>
        <time>2020-06-16T07:35:52Z</time>
      </trkpt>
      <trkpt lat="47.07744" lon="5.65827">
        <ele>254</ele>
        <time>2020-06-16T07:35:57Z</time>
      </trkpt>
      <trkpt lat="47.07751" lon="5.65832">
        <ele>253</ele>
        <time>2020-06-16T07:36:06Z</time>
      </trkpt>
      <trkpt lat="47.07753" lon="5.6584">
        <ele>253</ele>
        <time>2020-06-16T07:36:11Z</time>
      </trkpt>
      <trkpt lat="47.07753" lon="5.65858">
        <ele>254</ele>
        <time>2020-06-16T07:36:21Z</time>
      </trkpt>
      <trkpt lat="47.07758" lon="5.65873">
        <ele>254</ele>
        <time>2020-06-16T07:36:31Z</time>
      </trkpt>
      <trkpt lat="47.0776" lon="5.659">
        <ele>254</ele>
        <time>2020-06-16T07:36:43Z</time>
      </trkpt>
      <trkpt lat="47.07764" lon="5.65917">
        <ele>254</ele>
        <time>2020-06-16T07:36:53Z</time>
      </trkpt>
      <trkpt lat="47.07765" lon="5.65923">
        <ele>254</ele>
        <time>2020-06-16T07:36:56Z</time>
      </trkpt>
      <trkpt lat="47.07766" lon="5.65928">
        <ele>254</ele>
        <time>2020-06-16T07:36:58Z</time>
      </trkpt>
      <trkpt lat="47.07769" lon="5.65933">
        <ele>255</ele>
        <time>2020-06-16T07:37:01Z</time>
      </trkpt>
      <trkpt lat="47.07777" lon="5.65969">
        <ele>255</ele>
        <time>2020-06-16T07:37:20Z</time>
      </trkpt>
      <trkpt lat="47.07778" lon="5.65981">
        <ele>255</ele>
        <time>2020-06-16T07:37:27Z</time>
      </trkpt>
      <trkpt lat="47.0778" lon="5.65987">
        <ele>255</ele>
        <time>2020-06-16T07:37:31Z</time>
      </trkpt>
      <trkpt lat="47.07781" lon="5.65993">
        <ele>255</ele>
        <time>2020-06-16T07:37:34Z</time>
      </trkpt>
      <trkpt lat="47.07786" lon="5.66003">
        <ele>255</ele>
        <time>2020-06-16T07:37:39Z</time>
      </trkpt>
      <trkpt lat="47.078" lon="5.66059">
        <ele>254</ele>
        <time>2020-06-16T07:38:10Z</time>
      </trkpt>
      <trkpt lat="47.07804" lon="5.66091">
        <ele>254</ele>
        <time>2020-06-16T07:38:26Z</time>
      </trkpt>
      <trkpt lat="47.07807" lon="5.66103">
        <ele>254</ele>
        <time>2020-06-16T07:38:32Z</time>
      </trkpt>
      <trkpt lat="47.07809" lon="5.66116">
        <ele>254</ele>
        <time>2020-06-16T07:38:39Z</time>
      </trkpt>
      <trkpt lat="47.07814" lon="5.66127">
        <ele>254</ele>
        <time>2020-06-16T07:38:45Z</time>
      </trkpt>
      <trkpt lat="47.07819" lon="5.66158">
        <ele>254</ele>
        <time>2020-06-16T07:39:01Z</time>
      </trkpt>
      <trkpt lat="47.07821" lon="5.66162">
        <ele>254</ele>
        <time>2020-06-16T07:39:04Z</time>
      </trkpt>
      <trkpt lat="47.07834" lon="5.66222">
        <ele>253</ele>
        <time>2020-06-16T07:39:36Z</time>
      </trkpt>
      <trkpt lat="47.07833" lon="5.66228">
        <ele>253</ele>
        <time>2020-06-16T07:39:39Z</time>
      </trkpt>
      <trkpt lat="47.07838" lon="5.66239">
        <ele>253</ele>
        <time>2020-06-16T07:39:45Z</time>
      </trkpt>
      <trkpt lat="47.07839" lon="5.66252">
        <ele>253</ele>
        <time>2020-06-16T07:39:51Z</time>
      </trkpt>
      <trkpt lat="47.07841" lon="5.66258">
        <ele>252</ele>
        <time>2020-06-16T07:39:54Z</time>
      </trkpt>
      <trkpt lat="47.07846" lon="5.66268">
        <ele>252</ele>
        <time>2020-06-16T07:40:00Z</time>
      </trkpt>
      <trkpt lat="47.07849" lon="5.66285">
        <ele>252</ele>
        <time>2020-06-16T07:40:09Z</time>
      </trkpt>
      <trkpt lat="47.07853" lon="5.66298">
        <ele>252</ele>
        <time>2020-06-16T07:40:15Z</time>
      </trkpt>
      <trkpt lat="47.07854" lon="5.66311">
        <ele>252</ele>
        <time>2020-06-16T07:40:22Z</time>
      </trkpt>
      <trkpt lat="47.07857" lon="5.66316">
        <ele>252</ele>
        <time>2020-06-16T07:40:25Z</time>
      </trkpt>
      <trkpt lat="47.07868" lon="5.66376">
        <ele>252</ele>
        <time>2020-06-16T07:40:56Z</time>
      </trkpt>
      <trkpt lat="47.07869" lon="5.66383">
        <ele>252</ele>
        <time>2020-06-16T07:40:59Z</time>
      </trkpt>
      <trkpt lat="47.07872" lon="5.66392">
        <ele>252</ele>
        <time>2020-06-16T07:41:05Z</time>
      </trkpt>
      <trkpt lat="47.07876" lon="5.6641">
        <ele>252</ele>
        <time>2020-06-16T07:41:15Z</time>
      </trkpt>
      <trkpt lat="47.07884" lon="5.66435">
        <ele>252</ele>
        <time>2020-06-16T07:41:28Z</time>
      </trkpt>
      <trkpt lat="47.07886" lon="5.66448">
        <ele>252</ele>
        <time>2020-06-16T07:41:34Z</time>
      </trkpt>
      <trkpt lat="47.07887" lon="5.66467">
        <ele>252</ele>
        <time>2020-06-16T07:41:45Z</time>
      </trkpt>
      <trkpt lat="47.0789" lon="5.66479">
        <ele>252</ele>
        <time>2020-06-16T07:41:51Z</time>
      </trkpt>
      <trkpt lat="47.07892" lon="5.66488">
        <ele>253</ele>
        <time>2020-06-16T07:41:56Z</time>
      </trkpt>
      <trkpt lat="47.07895" lon="5.66496">
        <ele>253</ele>
        <time>2020-06-16T07:42:00Z</time>
      </trkpt>
      <trkpt lat="47.07905" lon="5.66539">
        <ele>253</ele>
        <time>2020-06-16T07:42:27Z</time>
      </trkpt>
      <trkpt lat="47.07908" lon="5.66547">
        <ele>253</ele>
        <time>2020-06-16T07:42:32Z</time>
      </trkpt>
      <trkpt lat="47.07908" lon="5.66555">
        <ele>253</ele>
        <time>2020-06-16T07:42:37Z</time>
      </trkpt>
      <trkpt lat="47.0791" lon="5.66563">
        <ele>253</ele>
        <time>2020-06-16T07:42:43Z</time>
      </trkpt>
      <trkpt lat="47.07913" lon="5.66585">
        <ele>253</ele>
        <time>2020-06-16T07:42:58Z</time>
      </trkpt>
      <trkpt lat="47.07915" lon="5.66594">
        <ele>253</ele>
        <time>2020-06-16T07:43:02Z</time>
      </trkpt>
      <trkpt lat="47.07916" lon="5.66604">
        <ele>253</ele>
        <time>2020-06-16T07:43:07Z</time>
      </trkpt>
      <trkpt lat="47.07922" lon="5.66617">
        <ele>253</ele>
        <time>2020-06-16T07:43:15Z</time>
      </trkpt>
      <trkpt lat="47.07935" lon="5.66678">
        <ele>252</ele>
        <time>2020-06-16T07:43:48Z</time>
      </trkpt>
      <trkpt lat="47.07936" lon="5.66686">
        <ele>252</ele>
        <time>2020-06-16T07:43:53Z</time>
      </trkpt>
      <trkpt lat="47.07939" lon="5.66694">
        <ele>252</ele>
        <time>2020-06-16T07:43:57Z</time>
      </trkpt>
      <trkpt lat="47.07947" lon="5.66729">
        <ele>251</ele>
        <time>2020-06-16T07:44:14Z</time>
      </trkpt>
      <trkpt lat="47.07954" lon="5.66746">
        <ele>251</ele>
        <time>2020-06-16T07:44:25Z</time>
      </trkpt>
      <trkpt lat="47.07962" lon="5.66783">
        <ele>250</ele>
        <time>2020-06-16T07:44:45Z</time>
      </trkpt>
      <trkpt lat="47.07965" lon="5.6679">
        <ele>250</ele>
        <time>2020-06-16T07:44:49Z</time>
      </trkpt>
      <trkpt lat="47.07968" lon="5.66807">
        <ele>250</ele>
        <time>2020-06-16T07:44:57Z</time>
      </trkpt>
      <trkpt lat="47.07965" lon="5.66822">
        <ele>250</ele>
        <time>2020-06-16T07:45:04Z</time>
      </trkpt>
      <trkpt lat="47.07966" lon="5.66831">
        <ele>249</ele>
        <time>2020-06-16T07:45:08Z</time>
      </trkpt>
      <trkpt lat="47.07978" lon="5.66883">
        <ele>247</ele>
        <time>2020-06-16T07:45:34Z</time>
      </trkpt>
      <trkpt lat="47.07984" lon="5.66895">
        <ele>247</ele>
        <time>2020-06-16T07:45:41Z</time>
      </trkpt>
      <trkpt lat="47.07989" lon="5.66914">
        <ele>246</ele>
        <time>2020-06-16T07:45:50Z</time>
      </trkpt>
      <trkpt lat="47.07991" lon="5.66933">
        <ele>245</ele>
        <time>2020-06-16T07:46:01Z</time>
      </trkpt>
      <trkpt lat="47.07994" lon="5.6694">
        <ele>245</ele>
        <time>2020-06-16T07:46:05Z</time>
      </trkpt>
      <trkpt lat="47.07995" lon="5.66959">
        <ele>244</ele>
        <time>2020-06-16T07:46:14Z</time>
      </trkpt>
      <trkpt lat="47.08016" lon="5.67022">
        <ele>243</ele>
        <time>2020-06-16T07:46:47Z</time>
      </trkpt>
      <trkpt lat="47.0802" lon="5.67029">
        <ele>243</ele>
        <time>2020-06-16T07:46:51Z</time>
      </trkpt>
      <trkpt lat="47.08022" lon="5.67038">
        <ele>243</ele>
        <time>2020-06-16T07:46:55Z</time>
      </trkpt>
      <trkpt lat="47.08028" lon="5.67053">
        <ele>243</ele>
        <time>2020-06-16T07:47:05Z</time>
      </trkpt>
      <trkpt lat="47.0803" lon="5.6708">
        <ele>244</ele>
        <time>2020-06-16T07:47:20Z</time>
      </trkpt>
      <trkpt lat="47.0803" lon="5.67089">
        <ele>244</ele>
        <time>2020-06-16T07:47:24Z</time>
      </trkpt>
      <trkpt lat="47.08025" lon="5.67093">
        <ele>245</ele>
        <time>2020-06-16T07:47:30Z</time>
      </trkpt>
      <trkpt lat="47.08029" lon="5.67104">
        <ele>246</ele>
        <time>2020-06-16T07:47:47Z</time>
      </trkpt>
      <trkpt lat="47.08035" lon="5.67105">
        <ele>246</ele>
        <time>2020-06-16T07:48:13Z</time>
      </trkpt>
      <trkpt lat="47.08032" lon="5.67102">
        <ele>245</ele>
        <time>2020-06-16T07:49:30Z</time>
      </trkpt>
      <trkpt lat="47.08027" lon="5.67104">
        <ele>245</ele>
        <time>2020-06-16T07:50:35Z</time>
      </trkpt>
      <trkpt lat="47.08021" lon="5.67107">
        <ele>245</ele>
        <time>2020-06-16T07:50:42Z</time>
      </trkpt>
      <trkpt lat="47.08013" lon="5.67109">
        <ele>245</ele>
        <time>2020-06-16T07:50:50Z</time>
      </trkpt>
      <trkpt lat="47.07995" lon="5.67105">
        <ele>245</ele>
        <time>2020-06-16T07:51:05Z</time>
      </trkpt>
      <trkpt lat="47.07971" lon="5.67111">
        <ele>247</ele>
        <time>2020-06-16T07:51:25Z</time>
      </trkpt>
      <trkpt lat="47.07964" lon="5.67119">
        <ele>249</ele>
        <time>2020-06-16T07:51:34Z</time>
      </trkpt>
      <trkpt lat="47.07957" lon="5.6712">
        <ele>247</ele>
        <time>2020-06-16T07:51:38Z</time>
      </trkpt>
      <trkpt lat="47.07944" lon="5.67117">
        <ele>247</ele>
        <time>2020-06-16T07:51:47Z</time>
      </trkpt>
      <trkpt lat="47.07938" lon="5.6712">
        <ele>247</ele>
        <time>2020-06-16T07:51:52Z</time>
      </trkpt>
      <trkpt lat="47.07932" lon="5.67124">
        <ele>247</ele>
        <time>2020-06-16T07:51:57Z</time>
      </trkpt>
      <trkpt lat="47.07927" lon="5.67124">
        <ele>247</ele>
        <time>2020-06-16T07:52:01Z</time>
      </trkpt>
      <trkpt lat="47.07905" lon="5.67119">
        <ele>248</ele>
        <time>2020-06-16T07:52:17Z</time>
      </trkpt>
      <trkpt lat="47.07893" lon="5.67123">
        <ele>248</ele>
        <time>2020-06-16T07:52:27Z</time>
      </trkpt>
      <trkpt lat="47.07882" lon="5.67132">
        <ele>248</ele>
        <time>2020-06-16T07:52:36Z</time>
      </trkpt>
      <trkpt lat="47.07837" lon="5.67147">
        <ele>250</ele>
        <time>2020-06-16T07:53:08Z</time>
      </trkpt>
      <trkpt lat="47.07832" lon="5.67159">
        <ele>250</ele>
        <time>2020-06-16T07:53:17Z</time>
      </trkpt>
      <trkpt lat="47.07824" lon="5.67161">
        <ele>250</ele>
        <time>2020-06-16T07:53:23Z</time>
      </trkpt>
      <trkpt lat="47.07817" lon="5.67159">
        <ele>250</ele>
        <time>2020-06-16T07:53:28Z</time>
      </trkpt>
      <trkpt lat="47.07809" lon="5.67161">
        <ele>251</ele>
        <time>2020-06-16T07:53:36Z</time>
      </trkpt>
      <trkpt lat="47.078" lon="5.6716">
        <ele>251</ele>
        <time>2020-06-16T07:53:41Z</time>
      </trkpt>
      <trkpt lat="47.0778" lon="5.67171">
        <ele>250</ele>
        <time>2020-06-16T07:53:55Z</time>
      </trkpt>
      <trkpt lat="47.07774" lon="5.67169">
        <ele>250</ele>
        <time>2020-06-16T07:53:59Z</time>
      </trkpt>
      <trkpt lat="47.07747" lon="5.67175">
        <ele>251</ele>
        <time>2020-06-16T07:54:16Z</time>
      </trkpt>
      <trkpt lat="47.07741" lon="5.6718">
        <ele>251</ele>
        <time>2020-06-16T07:54:21Z</time>
      </trkpt>
      <trkpt lat="47.07712" lon="5.6719">
        <ele>251</ele>
        <time>2020-06-16T07:54:41Z</time>
      </trkpt>
      <trkpt lat="47.07701" lon="5.67187">
        <ele>251</ele>
        <time>2020-06-16T07:54:50Z</time>
      </trkpt>
      <trkpt lat="47.07688" lon="5.67191">
        <ele>251</ele>
        <time>2020-06-16T07:55:05Z</time>
      </trkpt>
      <trkpt lat="47.07684" lon="5.67193">
        <ele>251</ele>
        <time>2020-06-16T07:55:08Z</time>
      </trkpt>
      <trkpt lat="47.07677" lon="5.67202">
        <ele>251</ele>
        <time>2020-06-16T07:55:13Z</time>
      </trkpt>
      <trkpt lat="47.07674" lon="5.67206">
        <ele>251</ele>
        <time>2020-06-16T07:55:15Z</time>
      </trkpt>
      <trkpt lat="47.07669" lon="5.67209">
        <ele>252</ele>
        <time>2020-06-16T07:55:17Z</time>
      </trkpt>
      <trkpt lat="47.07664" lon="5.67214">
        <ele>251</ele>
        <time>2020-06-16T07:55:20Z</time>
      </trkpt>
      <trkpt lat="47.07633" lon="5.67229">
        <ele>251</ele>
        <time>2020-06-16T07:55:44Z</time>
      </trkpt>
      <trkpt lat="47.07628" lon="5.67228">
        <ele>251</ele>
        <time>2020-06-16T07:55:49Z</time>
      </trkpt>
      <trkpt lat="47.0761" lon="5.67229">
        <ele>250</ele>
        <time>2020-06-16T07:56:05Z</time>
      </trkpt>
      <trkpt lat="47.07603" lon="5.67231">
        <ele>249</ele>
        <time>2020-06-16T07:56:09Z</time>
      </trkpt>
      <trkpt lat="47.07599" lon="5.67232">
        <ele>249</ele>
        <time>2020-06-16T07:56:12Z</time>
      </trkpt>
      <trkpt lat="47.07591" lon="5.67232">
        <ele>249</ele>
        <time>2020-06-16T07:56:19Z</time>
      </trkpt>
      <trkpt lat="47.07584" lon="5.67236">
        <ele>248</ele>
        <time>2020-06-16T07:56:25Z</time>
      </trkpt>
      <trkpt lat="47.07564" lon="5.67239">
        <ele>246</ele>
        <time>2020-06-16T07:56:41Z</time>
      </trkpt>
      <trkpt lat="47.07559" lon="5.67242">
        <ele>246</ele>
        <time>2020-06-16T07:56:46Z</time>
      </trkpt>
      <trkpt lat="47.07544" lon="5.67246">
        <ele>245</ele>
        <time>2020-06-16T07:57:05Z</time>
      </trkpt>
      <trkpt lat="47.0755" lon="5.67245">
        <ele>246</ele>
        <time>2020-06-16T07:57:25Z</time>
      </trkpt>
      <trkpt lat="47.07554" lon="5.6724">
        <ele>246</ele>
        <time>2020-06-16T07:57:49Z</time>
      </trkpt>
      <trkpt lat="47.07556" lon="5.6723">
        <ele>247</ele>
        <time>2020-06-16T07:57:56Z</time>
      </trkpt>
      <trkpt lat="47.07557" lon="5.67232">
        <ele>247</ele>
        <time>2020-06-16T07:58:18Z</time>
      </trkpt>
      <trkpt lat="47.07562" lon="5.67245">
        <ele>246</ele>
        <time>2020-06-16T07:58:33Z</time>
      </trkpt>
      <trkpt lat="47.07563" lon="5.67257">
        <ele>246</ele>
        <time>2020-06-16T07:58:40Z</time>
      </trkpt>
      <trkpt lat="47.07571" lon="5.67297">
        <ele>245</ele>
        <time>2020-06-16T07:59:07Z</time>
      </trkpt>
      <trkpt lat="47.07577" lon="5.67308">
        <ele>245</ele>
        <time>2020-06-16T07:59:13Z</time>
      </trkpt>
      <trkpt lat="47.07579" lon="5.67318">
        <ele>245</ele>
        <time>2020-06-16T07:59:20Z</time>
      </trkpt>
      <trkpt lat="47.07584" lon="5.67327">
        <ele>244</ele>
        <time>2020-06-16T07:59:26Z</time>
      </trkpt>
      <trkpt lat="47.0759" lon="5.67348">
        <ele>243</ele>
        <time>2020-06-16T07:59:41Z</time>
      </trkpt>
      <trkpt lat="47.0759" lon="5.67359">
        <ele>243</ele>
        <time>2020-06-16T07:59:48Z</time>
      </trkpt>
      <trkpt lat="47.07593" lon="5.6737">
        <ele>243</ele>
        <time>2020-06-16T07:59:54Z</time>
      </trkpt>
      <trkpt lat="47.07594" lon="5.67383">
        <ele>242</ele>
        <time>2020-06-16T08:00:01Z</time>
      </trkpt>
      <trkpt lat="47.07598" lon="5.67394">
        <ele>242</ele>
        <time>2020-06-16T08:00:05Z</time>
      </trkpt>
      <trkpt lat="47.07599" lon="5.67404">
        <ele>241</ele>
        <time>2020-06-16T08:00:12Z</time>
      </trkpt>
      <trkpt lat="47.07596" lon="5.67432">
        <ele>238</ele>
        <time>2020-06-16T08:00:24Z</time>
      </trkpt>
      <trkpt lat="47.07599" lon="5.67453">
        <ele>238</ele>
        <time>2020-06-16T08:00:31Z</time>
      </trkpt>
      <trkpt lat="47.07601" lon="5.67473">
        <ele>240</ele>
        <time>2020-06-16T08:00:39Z</time>
      </trkpt>
      <trkpt lat="47.07601" lon="5.67498">
        <ele>243</ele>
        <time>2020-06-16T08:00:57Z</time>
      </trkpt>
      <trkpt lat="47.07604" lon="5.67506">
        <ele>244</ele>
        <time>2020-06-16T08:01:07Z</time>
      </trkpt>
      <trkpt lat="47.07605" lon="5.67515">
        <ele>245</ele>
        <time>2020-06-16T08:01:12Z</time>
      </trkpt>
      <trkpt lat="47.07611" lon="5.67521">
        <ele>245</ele>
        <time>2020-06-16T08:01:17Z</time>
      </trkpt>
      <trkpt lat="47.07613" lon="5.67537">
        <ele>245</ele>
        <time>2020-06-16T08:01:26Z</time>
      </trkpt>
      <trkpt lat="47.07624" lon="5.67569">
        <ele>245</ele>
        <time>2020-06-16T08:01:43Z</time>
      </trkpt>
      <trkpt lat="47.07627" lon="5.67584">
        <ele>245</ele>
        <time>2020-06-16T08:01:54Z</time>
      </trkpt>
      <trkpt lat="47.0763" lon="5.676">
        <ele>244</ele>
        <time>2020-06-16T08:02:04Z</time>
      </trkpt>
      <trkpt lat="47.0764" lon="5.67623">
        <ele>244</ele>
        <time>2020-06-16T08:02:18Z</time>
      </trkpt>
      <trkpt lat="47.07644" lon="5.6764">
        <ele>244</ele>
        <time>2020-06-16T08:02:29Z</time>
      </trkpt>
      <trkpt lat="47.07645" lon="5.67648">
        <ele>244</ele>
        <time>2020-06-16T08:02:37Z</time>
      </trkpt>
      <trkpt lat="47.07644" lon="5.67659">
        <ele>243</ele>
        <time>2020-06-16T08:02:52Z</time>
      </trkpt>
      <trkpt lat="47.07648" lon="5.67668">
        <ele>243</ele>
        <time>2020-06-16T08:02:59Z</time>
      </trkpt>
      <trkpt lat="47.0765" lon="5.67679">
        <ele>243</ele>
        <time>2020-06-16T08:03:05Z</time>
      </trkpt>
      <trkpt lat="47.0765" lon="5.67687">
        <ele>243</ele>
        <time>2020-06-16T08:03:09Z</time>
      </trkpt>
      <trkpt lat="47.07657" lon="5.67738">
        <ele>242</ele>
        <time>2020-06-16T08:03:43Z</time>
      </trkpt>
      <trkpt lat="47.07661" lon="5.67747">
        <ele>242</ele>
        <time>2020-06-16T08:03:51Z</time>
      </trkpt>
      <trkpt lat="47.07667" lon="5.67771">
        <ele>242</ele>
        <time>2020-06-16T08:04:07Z</time>
      </trkpt>
      <trkpt lat="47.0767" lon="5.67781">
        <ele>242</ele>
        <time>2020-06-16T08:04:14Z</time>
      </trkpt>
      <trkpt lat="47.07672" lon="5.67792">
        <ele>243</ele>
        <time>2020-06-16T08:04:19Z</time>
      </trkpt>
      <trkpt lat="47.07668" lon="5.67801">
        <ele>243</ele>
        <time>2020-06-16T08:04:27Z</time>
      </trkpt>
      <trkpt lat="47.07671" lon="5.67813">
        <ele>243</ele>
        <time>2020-06-16T08:04:35Z</time>
      </trkpt>
      <trkpt lat="47.07664" lon="5.67815">
        <ele>240</ele>
        <time>2020-06-16T08:05:21Z</time>
      </trkpt>
      <trkpt lat="47.07651" lon="5.67822">
        <ele>238</ele>
        <time>2020-06-16T08:05:38Z</time>
      </trkpt>
      <trkpt lat="47.07636" lon="5.67831">
        <ele>238</ele>
        <time>2020-06-16T08:05:56Z</time>
      </trkpt>
      <trkpt lat="47.07621" lon="5.67839">
        <ele>238</ele>
        <time>2020-06-16T08:06:20Z</time>
      </trkpt>
      <trkpt lat="47.07616" lon="5.67832">
        <ele>237</ele>
        <time>2020-06-16T08:07:19Z</time>
      </trkpt>
      <trkpt lat="47.07622" lon="5.67828">
        <ele>238</ele>
        <time>2020-06-16T08:07:49Z</time>
      </trkpt>
      <trkpt lat="47.07619" lon="5.6783">
        <ele>239</ele>
        <time>2020-06-16T08:08:19Z</time>
      </trkpt>
      <trkpt lat="47.07614" lon="5.67836">
        <ele>239</ele>
        <time>2020-06-16T08:08:24Z</time>
      </trkpt>
      <trkpt lat="47.07607" lon="5.67841">
        <ele>238</ele>
        <time>2020-06-16T08:08:36Z</time>
      </trkpt>
      <trkpt lat="47.07601" lon="5.67857">
        <ele>239</ele>
        <time>2020-06-16T08:08:54Z</time>
      </trkpt>
      <trkpt lat="47.07605" lon="5.67871">
        <ele>238</ele>
        <time>2020-06-16T08:08:58Z</time>
      </trkpt>
      <trkpt lat="47.07606" lon="5.6788">
        <ele>239</ele>
        <time>2020-06-16T08:09:02Z</time>
      </trkpt>
      <trkpt lat="47.07612" lon="5.67881">
        <ele>240</ele>
        <time>2020-06-16T08:09:34Z</time>
      </trkpt>
      <trkpt lat="47.0761" lon="5.6787">
        <ele>240</ele>
        <time>2020-06-16T08:10:05Z</time>
      </trkpt>
      <trkpt lat="47.07618" lon="5.67872">
        <ele>240</ele>
        <time>2020-06-16T08:10:31Z</time>
      </trkpt>
      <trkpt lat="47.07607" lon="5.67888">
        <ele>240</ele>
        <time>2020-06-16T08:12:31Z</time>
      </trkpt>
      <trkpt lat="47.07601" lon="5.67866">
        <ele>240</ele>
        <time>2020-06-16T08:14:50Z</time>
      </trkpt>
      <trkpt lat="47.07597" lon="5.67844">
        <ele>240</ele>
        <time>2020-06-16T08:15:02Z</time>
      </trkpt>
      <trkpt lat="47.07582" lon="5.67841">
        <ele>240</ele>
        <time>2020-06-16T08:15:14Z</time>
      </trkpt>
      <trkpt lat="47.07551" lon="5.67843">
        <ele>241</ele>
        <time>2020-06-16T08:15:34Z</time>
      </trkpt>
      <trkpt lat="47.0752" lon="5.67865">
        <ele>243</ele>
        <time>2020-06-16T08:16:06Z</time>
      </trkpt>
      <trkpt lat="47.07489" lon="5.67859">
        <ele>245</ele>
        <time>2020-06-16T08:16:33Z</time>
      </trkpt>
      <trkpt lat="47.07482" lon="5.6786">
        <ele>245</ele>
        <time>2020-06-16T08:16:38Z</time>
      </trkpt>
      <trkpt lat="47.07468" lon="5.67867">
        <ele>245</ele>
        <time>2020-06-16T08:16:51Z</time>
      </trkpt>
      <trkpt lat="47.07459" lon="5.67875">
        <ele>246</ele>
        <time>2020-06-16T08:17:08Z</time>
      </trkpt>
      <trkpt lat="47.07448" lon="5.67865">
        <ele>247</ele>
        <time>2020-06-16T08:17:29Z</time>
      </trkpt>
      <trkpt lat="47.07443" lon="5.67856">
        <ele>246</ele>
        <time>2020-06-16T08:17:41Z</time>
      </trkpt>
      <trkpt lat="47.07443" lon="5.6784">
        <ele>246</ele>
        <time>2020-06-16T08:17:52Z</time>
      </trkpt>
      <trkpt lat="47.07441" lon="5.67819">
        <ele>245</ele>
        <time>2020-06-16T08:18:09Z</time>
      </trkpt>
      <trkpt lat="47.07443" lon="5.67808">
        <ele>245</ele>
        <time>2020-06-16T08:18:14Z</time>
      </trkpt>
      <trkpt lat="47.07441" lon="5.67799">
        <ele>244</ele>
        <time>2020-06-16T08:18:21Z</time>
      </trkpt>
      <trkpt lat="47.07438" lon="5.67791">
        <ele>244</ele>
        <time>2020-06-16T08:18:26Z</time>
      </trkpt>
      <trkpt lat="47.07435" lon="5.67771">
        <ele>244</ele>
        <time>2020-06-16T08:18:38Z</time>
      </trkpt>
      <trkpt lat="47.07432" lon="5.67749">
        <ele>244</ele>
        <time>2020-06-16T08:18:48Z</time>
      </trkpt>
      <trkpt lat="47.07425" lon="5.67735">
        <ele>246</ele>
        <time>2020-06-16T08:19:09Z</time>
      </trkpt>
      <trkpt lat="47.07416" lon="5.67705">
        <ele>247</ele>
        <time>2020-06-16T08:19:24Z</time>
      </trkpt>
      <trkpt lat="47.07408" lon="5.67673">
        <ele>248</ele>
        <time>2020-06-16T08:19:44Z</time>
      </trkpt>
      <trkpt lat="47.07402" lon="5.67657">
        <ele>248</ele>
        <time>2020-06-16T08:19:53Z</time>
      </trkpt>
      <trkpt lat="47.07397" lon="5.67632">
        <ele>249</ele>
        <time>2020-06-16T08:20:09Z</time>
      </trkpt>
      <trkpt lat="47.07398" lon="5.67615">
        <ele>249</ele>
        <time>2020-06-16T08:20:21Z</time>
      </trkpt>
      <trkpt lat="47.0738" lon="5.67556">
        <ele>249</ele>
        <time>2020-06-16T08:20:55Z</time>
      </trkpt>
      <trkpt lat="47.07373" lon="5.67518">
        <ele>249</ele>
        <time>2020-06-16T08:21:15Z</time>
      </trkpt>
      <trkpt lat="47.0736" lon="5.67468">
        <ele>247</ele>
        <time>2020-06-16T08:21:41Z</time>
      </trkpt>
      <trkpt lat="47.07356" lon="5.67461">
        <ele>247</ele>
        <time>2020-06-16T08:21:45Z</time>
      </trkpt>
      <trkpt lat="47.07356" lon="5.67452">
        <ele>247</ele>
        <time>2020-06-16T08:21:51Z</time>
      </trkpt>
      <trkpt lat="47.0735" lon="5.67433">
        <ele>247</ele>
        <time>2020-06-16T08:22:05Z</time>
      </trkpt>
      <trkpt lat="47.07346" lon="5.67425">
        <ele>246</ele>
        <time>2020-06-16T08:22:11Z</time>
      </trkpt>
      <trkpt lat="47.07347" lon="5.67406">
        <ele>244</ele>
        <time>2020-06-16T08:22:24Z</time>
      </trkpt>
      <trkpt lat="47.07343" lon="5.67399">
        <ele>243</ele>
        <time>2020-06-16T08:22:28Z</time>
      </trkpt>
      <trkpt lat="47.07337" lon="5.67385">
        <ele>243</ele>
        <time>2020-06-16T08:22:34Z</time>
      </trkpt>
      <trkpt lat="47.07335" lon="5.67374">
        <ele>244</ele>
        <time>2020-06-16T08:22:41Z</time>
      </trkpt>
      <trkpt lat="47.07333" lon="5.67358">
        <ele>245</ele>
        <time>2020-06-16T08:22:51Z</time>
      </trkpt>
      <trkpt lat="47.07331" lon="5.67351">
        <ele>246</ele>
        <time>2020-06-16T08:22:56Z</time>
      </trkpt>
      <trkpt lat="47.07332" lon="5.67341">
        <ele>246</ele>
        <time>2020-06-16T08:23:04Z</time>
      </trkpt>
      <trkpt lat="47.07333" lon="5.67329">
        <ele>246</ele>
        <time>2020-06-16T08:23:10Z</time>
      </trkpt>
      <trkpt lat="47.07327" lon="5.67324">
        <ele>246</ele>
        <time>2020-06-16T08:23:36Z</time>
      </trkpt>
      <trkpt lat="47.07318" lon="5.67315">
        <ele>247</ele>
        <time>2020-06-16T08:23:49Z</time>
      </trkpt>
      <trkpt lat="47.07312" lon="5.67315">
        <ele>247</ele>
        <time>2020-06-16T08:23:54Z</time>
      </trkpt>
      <trkpt lat="47.07295" lon="5.67318">
        <ele>248</ele>
        <time>2020-06-16T08:24:06Z</time>
      </trkpt>
      <trkpt lat="47.07282" lon="5.67324">
        <ele>248</ele>
        <time>2020-06-16T08:24:13Z</time>
      </trkpt>
      <trkpt lat="47.07276" lon="5.67326">
        <ele>249</ele>
        <time>2020-06-16T08:24:17Z</time>
      </trkpt>
      <trkpt lat="47.0726" lon="5.67335">
        <ele>249</ele>
        <time>2020-06-16T08:24:30Z</time>
      </trkpt>
      <trkpt lat="47.07242" lon="5.67331">
        <ele>250</ele>
        <time>2020-06-16T08:24:41Z</time>
      </trkpt>
      <trkpt lat="47.07201" lon="5.67347">
        <ele>251</ele>
        <time>2020-06-16T08:25:14Z</time>
      </trkpt>
      <trkpt lat="47.07175" lon="5.67358">
        <ele>251</ele>
        <time>2020-06-16T08:25:33Z</time>
      </trkpt>
      <trkpt lat="47.07169" lon="5.67359">
        <ele>251</ele>
        <time>2020-06-16T08:25:37Z</time>
      </trkpt>
      <trkpt lat="47.07156" lon="5.67363">
        <ele>252</ele>
        <time>2020-06-16T08:25:48Z</time>
      </trkpt>
      <trkpt lat="47.07149" lon="5.67362">
        <ele>252</ele>
        <time>2020-06-16T08:25:52Z</time>
      </trkpt>
      <trkpt lat="47.07106" lon="5.67382">
        <ele>253</ele>
        <time>2020-06-16T08:26:27Z</time>
      </trkpt>
      <trkpt lat="47.07093" lon="5.67384">
        <ele>253</ele>
        <time>2020-06-16T08:26:36Z</time>
      </trkpt>
      <trkpt lat="47.07082" lon="5.67389">
        <ele>253</ele>
        <time>2020-06-16T08:26:45Z</time>
      </trkpt>
      <trkpt lat="47.07059" lon="5.67397">
        <ele>253</ele>
        <time>2020-06-16T08:27:05Z</time>
      </trkpt>
      <trkpt lat="47.07053" lon="5.67402">
        <ele>253</ele>
        <time>2020-06-16T08:27:11Z</time>
      </trkpt>
      <trkpt lat="47.07045" lon="5.67404">
        <ele>254</ele>
        <time>2020-06-16T08:27:18Z</time>
      </trkpt>
      <trkpt lat="47.07017" lon="5.67404">
        <ele>254</ele>
        <time>2020-06-16T08:27:44Z</time>
      </trkpt>
      <trkpt lat="47.06993" lon="5.67409">
        <ele>253</ele>
        <time>2020-06-16T08:28:01Z</time>
      </trkpt>
      <trkpt lat="47.06984" lon="5.67407">
        <ele>253</ele>
        <time>2020-06-16T08:28:07Z</time>
      </trkpt>
      <trkpt lat="47.06969" lon="5.67409">
        <ele>253</ele>
        <time>2020-06-16T08:28:19Z</time>
      </trkpt>
      <trkpt lat="47.06955" lon="5.67418">
        <ele>253</ele>
        <time>2020-06-16T08:28:34Z</time>
      </trkpt>
      <trkpt lat="47.06909" lon="5.67425">
        <ele>252</ele>
        <time>2020-06-16T08:29:04Z</time>
      </trkpt>
      <trkpt lat="47.06903" lon="5.67432">
        <ele>253</ele>
        <time>2020-06-16T08:29:08Z</time>
      </trkpt>
      <trkpt lat="47.06896" lon="5.67435">
        <ele>253</ele>
        <time>2020-06-16T08:29:13Z</time>
      </trkpt>
      <trkpt lat="47.0689" lon="5.6744">
        <ele>253</ele>
        <time>2020-06-16T08:29:20Z</time>
      </trkpt>
      <trkpt lat="47.06876" lon="5.67445">
        <ele>253</ele>
        <time>2020-06-16T08:29:32Z</time>
      </trkpt>
      <trkpt lat="47.06867" lon="5.67443">
        <ele>252</ele>
        <time>2020-06-16T08:29:38Z</time>
      </trkpt>
      <trkpt lat="47.0686" lon="5.67439">
        <ele>252</ele>
        <time>2020-06-16T08:29:43Z</time>
      </trkpt>
      <trkpt lat="47.06855" lon="5.67439">
        <ele>252</ele>
        <time>2020-06-16T08:29:47Z</time>
      </trkpt>
      <trkpt lat="47.06827" lon="5.67448">
        <ele>252</ele>
        <time>2020-06-16T08:30:11Z</time>
      </trkpt>
      <trkpt lat="47.06822" lon="5.67448">
        <ele>252</ele>
        <time>2020-06-16T08:30:15Z</time>
      </trkpt>
      <trkpt lat="47.06781" lon="5.67463">
        <ele>252</ele>
        <time>2020-06-16T08:30:47Z</time>
      </trkpt>
      <trkpt lat="47.06759" lon="5.67468">
        <ele>252</ele>
        <time>2020-06-16T08:30:58Z</time>
      </trkpt>
      <trkpt lat="47.06753" lon="5.67467">
        <ele>252</ele>
        <time>2020-06-16T08:31:01Z</time>
      </trkpt>
      <trkpt lat="47.06748" lon="5.67469">
        <ele>252</ele>
        <time>2020-06-16T08:31:07Z</time>
      </trkpt>
      <trkpt lat="47.06737" lon="5.67478">
        <ele>252</ele>
        <time>2020-06-16T08:31:15Z</time>
      </trkpt>
      <trkpt lat="47.06732" lon="5.67479">
        <ele>252</ele>
        <time>2020-06-16T08:31:19Z</time>
      </trkpt>
      <trkpt lat="47.0671" lon="5.67493">
        <ele>253</ele>
        <time>2020-06-16T08:31:36Z</time>
      </trkpt>
      <trkpt lat="47.06704" lon="5.67492">
        <ele>253</ele>
        <time>2020-06-16T08:31:40Z</time>
      </trkpt>
      <trkpt lat="47.06686" lon="5.675">
        <ele>253</ele>
        <time>2020-06-16T08:31:52Z</time>
      </trkpt>
      <trkpt lat="47.06674" lon="5.675">
        <ele>253</ele>
        <time>2020-06-16T08:32:03Z</time>
      </trkpt>
      <trkpt lat="47.06633" lon="5.6752">
        <ele>253</ele>
        <time>2020-06-16T08:32:34Z</time>
      </trkpt>
      <trkpt lat="47.06591" lon="5.67532">
        <ele>253</ele>
        <time>2020-06-16T08:33:06Z</time>
      </trkpt>
      <trkpt lat="47.06587" lon="5.6754">
        <ele>253</ele>
        <time>2020-06-16T08:33:13Z</time>
      </trkpt>
      <trkpt lat="47.06559" lon="5.67547">
        <ele>253</ele>
        <time>2020-06-16T08:33:40Z</time>
      </trkpt>
      <trkpt lat="47.06544" lon="5.67544">
        <ele>253</ele>
        <time>2020-06-16T08:33:52Z</time>
      </trkpt>
      <trkpt lat="47.06529" lon="5.6755">
        <ele>253</ele>
        <time>2020-06-16T08:34:04Z</time>
      </trkpt>
      <trkpt lat="47.06499" lon="5.67548">
        <ele>253</ele>
        <time>2020-06-16T08:34:26Z</time>
      </trkpt>
      <trkpt lat="47.06463" lon="5.67559">
        <ele>253</ele>
        <time>2020-06-16T08:34:51Z</time>
      </trkpt>
      <trkpt lat="47.0645" lon="5.67571">
        <ele>252</ele>
        <time>2020-06-16T08:35:06Z</time>
      </trkpt>
      <trkpt lat="47.06411" lon="5.67577">
        <ele>252</ele>
        <time>2020-06-16T08:35:34Z</time>
      </trkpt>
      <trkpt lat="47.06401" lon="5.67583">
        <ele>252</ele>
        <time>2020-06-16T08:35:42Z</time>
      </trkpt>
      <trkpt lat="47.06371" lon="5.67588">
        <ele>251</ele>
        <time>2020-06-16T08:36:04Z</time>
      </trkpt>
      <trkpt lat="47.06365" lon="5.67593">
        <ele>251</ele>
        <time>2020-06-16T08:36:12Z</time>
      </trkpt>
      <trkpt lat="47.06348" lon="5.67598">
        <ele>250</ele>
        <time>2020-06-16T08:36:23Z</time>
      </trkpt>
      <trkpt lat="47.06339" lon="5.67599">
        <ele>250</ele>
        <time>2020-06-16T08:36:29Z</time>
      </trkpt>
      <trkpt lat="47.06333" lon="5.67604">
        <ele>250</ele>
        <time>2020-06-16T08:36:34Z</time>
      </trkpt>
      <trkpt lat="47.06295" lon="5.67608">
        <ele>249</ele>
        <time>2020-06-16T08:37:03Z</time>
      </trkpt>
      <trkpt lat="47.06287" lon="5.67615">
        <ele>248</ele>
        <time>2020-06-16T08:37:10Z</time>
      </trkpt>
      <trkpt lat="47.06271" lon="5.67617">
        <ele>248</ele>
        <time>2020-06-16T08:37:24Z</time>
      </trkpt>
      <trkpt lat="47.06262" lon="5.67622">
        <ele>248</ele>
        <time>2020-06-16T08:37:32Z</time>
      </trkpt>
      <trkpt lat="47.06245" lon="5.67625">
        <ele>248</ele>
        <time>2020-06-16T08:37:42Z</time>
      </trkpt>
      <trkpt lat="47.06202" lon="5.67638">
        <ele>247</ele>
        <time>2020-06-16T08:38:16Z</time>
      </trkpt>
      <trkpt lat="47.06194" lon="5.67641">
        <ele>247</ele>
        <time>2020-06-16T08:38:22Z</time>
      </trkpt>
      <trkpt lat="47.06187" lon="5.67647">
        <ele>247</ele>
        <time>2020-06-16T08:38:26Z</time>
      </trkpt>
      <trkpt lat="47.06157" lon="5.67658">
        <ele>248</ele>
        <time>2020-06-16T08:38:52Z</time>
      </trkpt>
      <trkpt lat="47.06143" lon="5.67666">
        <ele>248</ele>
        <time>2020-06-16T08:39:03Z</time>
      </trkpt>
      <trkpt lat="47.0613" lon="5.67667">
        <ele>248</ele>
        <time>2020-06-16T08:39:15Z</time>
      </trkpt>
      <trkpt lat="47.06123" lon="5.67672">
        <ele>248</ele>
        <time>2020-06-16T08:39:22Z</time>
      </trkpt>
      <trkpt lat="47.06088" lon="5.67679">
        <ele>248</ele>
        <time>2020-06-16T08:39:48Z</time>
      </trkpt>
      <trkpt lat="47.06076" lon="5.67686">
        <ele>248</ele>
        <time>2020-06-16T08:39:58Z</time>
      </trkpt>
      <trkpt lat="47.06069" lon="5.67693">
        <ele>248</ele>
        <time>2020-06-16T08:40:06Z</time>
      </trkpt>
      <trkpt lat="47.06064" lon="5.67702">
        <ele>247</ele>
        <time>2020-06-16T08:40:48Z</time>
      </trkpt>
      <trkpt lat="47.06063" lon="5.6771">
        <ele>247</ele>
        <time>2020-06-16T08:41:00Z</time>
      </trkpt>
      <trkpt lat="47.06071" lon="5.67707">
        <ele>247</ele>
        <time>2020-06-16T08:43:37Z</time>
      </trkpt>
      <trkpt lat="47.06066" lon="5.67697">
        <ele>247</ele>
        <time>2020-06-16T08:44:14Z</time>
      </trkpt>
      <trkpt lat="47.06061" lon="5.67694">
        <ele>247</ele>
        <time>2020-06-16T08:44:19Z</time>
      </trkpt>
      <trkpt lat="47.06055" lon="5.67695">
        <ele>246</ele>
        <time>2020-06-16T08:44:25Z</time>
      </trkpt>
      <trkpt lat="47.06045" lon="5.67694">
        <ele>246</ele>
        <time>2020-06-16T08:44:34Z</time>
      </trkpt>
      <trkpt lat="47.06017" lon="5.67697">
        <ele>244</ele>
        <time>2020-06-16T08:44:59Z</time>
      </trkpt>
      <trkpt lat="47.06011" lon="5.67685">
        <ele>244</ele>
        <time>2020-06-16T08:45:14Z</time>
      </trkpt>
      <trkpt lat="47.06007" lon="5.67664">
        <ele>244</ele>
        <time>2020-06-16T08:45:28Z</time>
      </trkpt>
      <trkpt lat="47.05981" lon="5.67612">
        <ele>245</ele>
        <time>2020-06-16T08:45:59Z</time>
      </trkpt>
      <trkpt lat="47.05973" lon="5.67586">
        <ele>245</ele>
        <time>2020-06-16T08:46:14Z</time>
      </trkpt>
      <trkpt lat="47.05967" lon="5.67578">
        <ele>246</ele>
        <time>2020-06-16T08:46:20Z</time>
      </trkpt>
      <trkpt lat="47.05946" lon="5.67531">
        <ele>246</ele>
        <time>2020-06-16T08:46:46Z</time>
      </trkpt>
      <trkpt lat="47.05931" lon="5.67512">
        <ele>246</ele>
        <time>2020-06-16T08:46:59Z</time>
      </trkpt>
      <trkpt lat="47.05918" lon="5.67482">
        <ele>246</ele>
        <time>2020-06-16T08:47:17Z</time>
      </trkpt>
      <trkpt lat="47.05909" lon="5.67439">
        <ele>245</ele>
        <time>2020-06-16T08:47:43Z</time>
      </trkpt>
      <trkpt lat="47.05887" lon="5.67402">
        <ele>246</ele>
        <time>2020-06-16T08:48:10Z</time>
      </trkpt>
      <trkpt lat="47.05881" lon="5.67385">
        <ele>246</ele>
        <time>2020-06-16T08:48:19Z</time>
      </trkpt>
      <trkpt lat="47.05876" lon="5.6738">
        <ele>246</ele>
        <time>2020-06-16T08:48:25Z</time>
      </trkpt>
      <trkpt lat="47.05871" lon="5.67366">
        <ele>246</ele>
        <time>2020-06-16T08:48:33Z</time>
      </trkpt>
      <trkpt lat="47.05866" lon="5.6735">
        <ele>247</ele>
        <time>2020-06-16T08:48:42Z</time>
      </trkpt>
      <trkpt lat="47.0586" lon="5.67343">
        <ele>247</ele>
        <time>2020-06-16T08:48:48Z</time>
      </trkpt>
      <trkpt lat="47.05832" lon="5.67289">
        <ele>248</ele>
        <time>2020-06-16T08:49:23Z</time>
      </trkpt>
      <trkpt lat="47.05816" lon="5.67252">
        <ele>249</ele>
        <time>2020-06-16T08:49:47Z</time>
      </trkpt>
      <trkpt lat="47.05807" lon="5.67222">
        <ele>249</ele>
        <time>2020-06-16T08:50:06Z</time>
      </trkpt>
      <trkpt lat="47.05797" lon="5.67204">
        <ele>249</ele>
        <time>2020-06-16T08:50:17Z</time>
      </trkpt>
      <trkpt lat="47.05788" lon="5.67163">
        <ele>250</ele>
        <time>2020-06-16T08:50:40Z</time>
      </trkpt>
      <trkpt lat="47.05763" lon="5.67106">
        <ele>250</ele>
        <time>2020-06-16T08:51:13Z</time>
      </trkpt>
      <trkpt lat="47.05747" lon="5.67064">
        <ele>250</ele>
        <time>2020-06-16T08:51:35Z</time>
      </trkpt>
      <trkpt lat="47.05743" lon="5.67057">
        <ele>251</ele>
        <time>2020-06-16T08:51:40Z</time>
      </trkpt>
      <trkpt lat="47.05739" lon="5.67052">
        <ele>251</ele>
        <time>2020-06-16T08:51:46Z</time>
      </trkpt>
      <trkpt lat="47.05731" lon="5.6704">
        <ele>251</ele>
        <time>2020-06-16T08:51:53Z</time>
      </trkpt>
      <trkpt lat="47.05723" lon="5.67019">
        <ele>251</ele>
        <time>2020-06-16T08:52:06Z</time>
      </trkpt>
      <trkpt lat="47.05718" lon="5.6701">
        <ele>250</ele>
        <time>2020-06-16T08:52:12Z</time>
      </trkpt>
      <trkpt lat="47.05714" lon="5.66991">
        <ele>250</ele>
        <time>2020-06-16T08:52:24Z</time>
      </trkpt>
      <trkpt lat="47.0571" lon="5.66984">
        <ele>250</ele>
        <time>2020-06-16T08:52:30Z</time>
      </trkpt>
      <trkpt lat="47.05698" lon="5.66954">
        <ele>249</ele>
        <time>2020-06-16T08:52:47Z</time>
      </trkpt>
      <trkpt lat="47.05694" lon="5.66947">
        <ele>249</ele>
        <time>2020-06-16T08:52:52Z</time>
      </trkpt>
      <trkpt lat="47.05688" lon="5.66931">
        <ele>249</ele>
        <time>2020-06-16T08:52:58Z</time>
      </trkpt>
      <trkpt lat="47.05687" lon="5.66922">
        <ele>249</ele>
        <time>2020-06-16T08:53:03Z</time>
      </trkpt>
      <trkpt lat="47.05675" lon="5.66903">
        <ele>249</ele>
        <time>2020-06-16T08:53:17Z</time>
      </trkpt>
      <trkpt lat="47.0567" lon="5.66899">
        <ele>248</ele>
        <time>2020-06-16T08:53:22Z</time>
      </trkpt>
      <trkpt lat="47.05666" lon="5.66895">
        <ele>248</ele>
        <time>2020-06-16T08:53:27Z</time>
      </trkpt>
      <trkpt lat="47.05658" lon="5.6688">
        <ele>248</ele>
        <time>2020-06-16T08:53:37Z</time>
      </trkpt>
      <trkpt lat="47.05656" lon="5.66871">
        <ele>248</ele>
        <time>2020-06-16T08:53:41Z</time>
      </trkpt>
      <trkpt lat="47.05646" lon="5.66841">
        <ele>247</ele>
        <time>2020-06-16T08:53:58Z</time>
      </trkpt>
      <trkpt lat="47.0564" lon="5.66833">
        <ele>246</ele>
        <time>2020-06-16T08:54:05Z</time>
      </trkpt>
      <trkpt lat="47.05638" lon="5.66824">
        <ele>246</ele>
        <time>2020-06-16T08:54:09Z</time>
      </trkpt>
      <trkpt lat="47.05617" lon="5.66779">
        <ele>246</ele>
        <time>2020-06-16T08:54:40Z</time>
      </trkpt>
      <trkpt lat="47.05594" lon="5.66718">
        <ele>247</ele>
        <time>2020-06-16T08:55:16Z</time>
      </trkpt>
      <trkpt lat="47.05577" lon="5.66675">
        <ele>248</ele>
        <time>2020-06-16T08:55:43Z</time>
      </trkpt>
      <trkpt lat="47.05565" lon="5.66656">
        <ele>248</ele>
        <time>2020-06-16T08:55:57Z</time>
      </trkpt>
      <trkpt lat="47.05557" lon="5.6663">
        <ele>248</ele>
        <time>2020-06-16T08:56:12Z</time>
      </trkpt>
      <trkpt lat="47.05553" lon="5.66624">
        <ele>248</ele>
        <time>2020-06-16T08:56:16Z</time>
      </trkpt>
      <trkpt lat="47.05537" lon="5.66577">
        <ele>247</ele>
        <time>2020-06-16T08:56:49Z</time>
      </trkpt>
      <trkpt lat="47.05536" lon="5.66568">
        <ele>247</ele>
        <time>2020-06-16T08:56:53Z</time>
      </trkpt>
      <trkpt lat="47.05519" lon="5.66542">
        <ele>247</ele>
        <time>2020-06-16T08:57:10Z</time>
      </trkpt>
      <trkpt lat="47.05495" lon="5.66491">
        <ele>245</ele>
        <time>2020-06-16T08:57:43Z</time>
      </trkpt>
      <trkpt lat="47.05492" lon="5.66481">
        <ele>244</ele>
        <time>2020-06-16T08:57:49Z</time>
      </trkpt>
      <trkpt lat="47.05482" lon="5.66462">
        <ele>244</ele>
        <time>2020-06-16T08:58:01Z</time>
      </trkpt>
      <trkpt lat="47.05461" lon="5.66402">
        <ele>243</ele>
        <time>2020-06-16T08:58:33Z</time>
      </trkpt>
      <trkpt lat="47.05458" lon="5.66396">
        <ele>243</ele>
        <time>2020-06-16T08:58:36Z</time>
      </trkpt>
      <trkpt lat="47.05454" lon="5.66389">
        <ele>243</ele>
        <time>2020-06-16T08:58:41Z</time>
      </trkpt>
      <trkpt lat="47.05451" lon="5.6638">
        <ele>244</ele>
        <time>2020-06-16T08:58:46Z</time>
      </trkpt>
      <trkpt lat="47.05442" lon="5.66368">
        <ele>244</ele>
        <time>2020-06-16T08:58:56Z</time>
      </trkpt>
      <trkpt lat="47.05436" lon="5.66348">
        <ele>244</ele>
        <time>2020-06-16T08:59:07Z</time>
      </trkpt>
      <trkpt lat="47.05432" lon="5.66342">
        <ele>244</ele>
        <time>2020-06-16T08:59:11Z</time>
      </trkpt>
      <trkpt lat="47.05425" lon="5.66326">
        <ele>244</ele>
        <time>2020-06-16T08:59:21Z</time>
      </trkpt>
      <trkpt lat="47.05419" lon="5.66313">
        <ele>244</ele>
        <time>2020-06-16T08:59:29Z</time>
      </trkpt>
      <trkpt lat="47.05416" lon="5.66303">
        <ele>244</ele>
        <time>2020-06-16T08:59:34Z</time>
      </trkpt>
      <trkpt lat="47.05411" lon="5.66289">
        <ele>244</ele>
        <time>2020-06-16T08:59:42Z</time>
      </trkpt>
      <trkpt lat="47.05402" lon="5.66276">
        <ele>245</ele>
        <time>2020-06-16T08:59:50Z</time>
      </trkpt>
      <trkpt lat="47.05399" lon="5.66267">
        <ele>245</ele>
        <time>2020-06-16T08:59:55Z</time>
      </trkpt>
      <trkpt lat="47.05397" lon="5.66259">
        <ele>245</ele>
        <time>2020-06-16T09:00:00Z</time>
      </trkpt>
      <trkpt lat="47.05371" lon="5.66202">
        <ele>246</ele>
        <time>2020-06-16T09:00:32Z</time>
      </trkpt>
      <trkpt lat="47.05366" lon="5.66186">
        <ele>246</ele>
        <time>2020-06-16T09:00:41Z</time>
      </trkpt>
      <trkpt lat="47.05357" lon="5.66171">
        <ele>247</ele>
        <time>2020-06-16T09:00:51Z</time>
      </trkpt>
      <trkpt lat="47.05352" lon="5.66156">
        <ele>247</ele>
        <time>2020-06-16T09:00:59Z</time>
      </trkpt>
      <trkpt lat="47.0535" lon="5.66149">
        <ele>247</ele>
        <time>2020-06-16T09:01:04Z</time>
      </trkpt>
      <trkpt lat="47.05333" lon="5.66099">
        <ele>248</ele>
        <time>2020-06-16T09:01:31Z</time>
      </trkpt>
      <trkpt lat="47.05325" lon="5.66085">
        <ele>248</ele>
        <time>2020-06-16T09:01:40Z</time>
      </trkpt>
      <trkpt lat="47.0532" lon="5.66081">
        <ele>248</ele>
        <time>2020-06-16T09:01:46Z</time>
      </trkpt>
      <trkpt lat="47.05317" lon="5.66073">
        <ele>248</ele>
        <time>2020-06-16T09:01:50Z</time>
      </trkpt>
      <trkpt lat="47.05317" lon="5.66064">
        <ele>249</ele>
        <time>2020-06-16T09:01:54Z</time>
      </trkpt>
      <trkpt lat="47.05319" lon="5.66056">
        <ele>249</ele>
        <time>2020-06-16T09:01:59Z</time>
      </trkpt>
      <trkpt lat="47.0532" lon="5.66038">
        <ele>249</ele>
        <time>2020-06-16T09:02:09Z</time>
      </trkpt>
      <trkpt lat="47.05312" lon="5.66018">
        <ele>249</ele>
        <time>2020-06-16T09:02:19Z</time>
      </trkpt>
      <trkpt lat="47.05308" lon="5.66008">
        <ele>248</ele>
        <time>2020-06-16T09:02:24Z</time>
      </trkpt>
      <trkpt lat="47.05301" lon="5.66001">
        <ele>248</ele>
        <time>2020-06-16T09:02:29Z</time>
      </trkpt>
      <trkpt lat="47.05277" lon="5.6595">
        <ele>248</ele>
        <time>2020-06-16T09:03:01Z</time>
      </trkpt>
      <trkpt lat="47.05265" lon="5.65931">
        <ele>248</ele>
        <time>2020-06-16T09:03:12Z</time>
      </trkpt>
      <trkpt lat="47.05256" lon="5.65918">
        <ele>248</ele>
        <time>2020-06-16T09:03:20Z</time>
      </trkpt>
      <trkpt lat="47.05246" lon="5.65881">
        <ele>247</ele>
        <time>2020-06-16T09:03:43Z</time>
      </trkpt>
      <trkpt lat="47.05246" lon="5.65873">
        <ele>247</ele>
        <time>2020-06-16T09:03:47Z</time>
      </trkpt>
      <trkpt lat="47.05244" lon="5.65865">
        <ele>247</ele>
        <time>2020-06-16T09:03:51Z</time>
      </trkpt>
      <trkpt lat="47.05235" lon="5.65861">
        <ele>248</ele>
        <time>2020-06-16T09:03:56Z</time>
      </trkpt>
      <trkpt lat="47.05221" lon="5.65844">
        <ele>247</ele>
        <time>2020-06-16T09:04:12Z</time>
      </trkpt>
      <trkpt lat="47.05217" lon="5.65836">
        <ele>247</ele>
        <time>2020-06-16T09:04:18Z</time>
      </trkpt>
      <trkpt lat="47.05213" lon="5.65826">
        <ele>247</ele>
        <time>2020-06-16T09:04:27Z</time>
      </trkpt>
      <trkpt lat="47.0519" lon="5.65788">
        <ele>244</ele>
        <time>2020-06-16T09:05:03Z</time>
      </trkpt>
      <trkpt lat="47.05163" lon="5.65765">
        <ele>245</ele>
        <time>2020-06-16T09:05:26Z</time>
      </trkpt>
      <trkpt lat="47.05152" lon="5.65748">
        <ele>245</ele>
        <time>2020-06-16T09:05:38Z</time>
      </trkpt>
      <trkpt lat="47.05107" lon="5.65771">
        <ele>246</ele>
        <time>2020-06-16T09:06:18Z</time>
      </trkpt>
      <trkpt lat="47.05078" lon="5.65763">
        <ele>246</ele>
        <time>2020-06-16T09:06:46Z</time>
      </trkpt>
      <trkpt lat="47.05041" lon="5.65732">
        <ele>246</ele>
        <time>2020-06-16T09:07:18Z</time>
      </trkpt>
      <trkpt lat="47.05026" lon="5.65687">
        <ele>246</ele>
        <time>2020-06-16T09:07:35Z</time>
      </trkpt>
      <trkpt lat="47.05022" lon="5.65635">
        <ele>247</ele>
        <time>2020-06-16T09:07:41Z</time>
      </trkpt>
      <trkpt lat="47.05004" lon="5.65551">
        <ele>247</ele>
        <time>2020-06-16T09:08:13Z</time>
      </trkpt>
      <trkpt lat="47.04977" lon="5.65463">
        <ele>247</ele>
        <time>2020-06-16T09:08:53Z</time>
      </trkpt>
      <trkpt lat="47.04969" lon="5.65439">
        <ele>247</ele>
        <time>2020-06-16T09:09:10Z</time>
      </trkpt>
      <trkpt lat="47.04963" lon="5.65379">
        <ele>247</ele>
        <time>2020-06-16T09:09:42Z</time>
      </trkpt>
      <trkpt lat="47.0496" lon="5.65338">
        <ele>247</ele>
        <time>2020-06-16T09:09:56Z</time>
      </trkpt>
      <trkpt lat="47.04942" lon="5.65258">
        <ele>246</ele>
        <time>2020-06-16T09:10:36Z</time>
      </trkpt>
      <trkpt lat="47.04956" lon="5.65226">
        <ele>245</ele>
        <time>2020-06-16T09:11:36Z</time>
      </trkpt>
      <trkpt lat="47.0496" lon="5.65236">
        <ele>245</ele>
        <time>2020-06-16T09:13:58Z</time>
      </trkpt>
      <trkpt lat="47.04994" lon="5.65231">
        <ele>245</ele>
        <time>2020-06-16T09:14:33Z</time>
      </trkpt>
      <trkpt lat="47.05007" lon="5.65224">
        <ele>244</ele>
        <time>2020-06-16T09:14:45Z</time>
      </trkpt>
      <trkpt lat="47.05035" lon="5.65218">
        <ele>243</ele>
        <time>2020-06-16T09:15:06Z</time>
      </trkpt>
      <trkpt lat="47.05038" lon="5.65216">
        <ele>243</ele>
        <time>2020-06-16T09:15:09Z</time>
      </trkpt>
      <trkpt lat="47.05044" lon="5.65217">
        <ele>243</ele>
        <time>2020-06-16T09:15:15Z</time>
      </trkpt>
      <trkpt lat="47.05079" lon="5.65206">
        <ele>241</ele>
        <time>2020-06-16T09:15:44Z</time>
      </trkpt>
      <trkpt lat="47.05086" lon="5.65203">
        <ele>240</ele>
        <time>2020-06-16T09:15:49Z</time>
      </trkpt>
      <trkpt lat="47.05092" lon="5.65204">
        <ele>240</ele>
        <time>2020-06-16T09:15:53Z</time>
      </trkpt>
      <trkpt lat="47.0511" lon="5.65198">
        <ele>239</ele>
        <time>2020-06-16T09:16:08Z</time>
      </trkpt>
      <trkpt lat="47.05115" lon="5.65202">
        <ele>238</ele>
        <time>2020-06-16T09:16:13Z</time>
      </trkpt>
      <trkpt lat="47.05121" lon="5.65193">
        <ele>239</ele>
        <time>2020-06-16T09:16:21Z</time>
      </trkpt>
      <trkpt lat="47.05131" lon="5.65188">
        <ele>239</ele>
        <time>2020-06-16T09:16:35Z</time>
      </trkpt>
      <trkpt lat="47.05143" lon="5.65184">
        <ele>239</ele>
        <time>2020-06-16T09:16:56Z</time>
      </trkpt>
      <trkpt lat="47.05156" lon="5.65167">
        <ele>239</ele>
        <time>2020-06-16T09:17:09Z</time>
      </trkpt>
      <trkpt lat="47.05171" lon="5.65163">
        <ele>240</ele>
        <time>2020-06-16T09:17:21Z</time>
      </trkpt>
      <trkpt lat="47.05186" lon="5.65165">
        <ele>240</ele>
        <time>2020-06-16T09:17:28Z</time>
      </trkpt>
      <trkpt lat="47.05198" lon="5.65173">
        <ele>241</ele>
        <time>2020-06-16T09:17:39Z</time>
      </trkpt>
      <trkpt lat="47.05234" lon="5.65158">
        <ele>243</ele>
        <time>2020-06-16T09:18:05Z</time>
      </trkpt>
      <trkpt lat="47.0524" lon="5.65157">
        <ele>243</ele>
        <time>2020-06-16T09:18:10Z</time>
      </trkpt>
      <trkpt lat="47.05256" lon="5.65146">
        <ele>244</ele>
        <time>2020-06-16T09:18:22Z</time>
      </trkpt>
      <trkpt lat="47.05297" lon="5.65139">
        <ele>245</ele>
        <time>2020-06-16T09:18:55Z</time>
      </trkpt>
      <trkpt lat="47.05303" lon="5.65138">
        <ele>245</ele>
        <time>2020-06-16T09:19:00Z</time>
      </trkpt>
      <trkpt lat="47.05309" lon="5.65133">
        <ele>245</ele>
        <time>2020-06-16T09:19:04Z</time>
      </trkpt>
      <trkpt lat="47.05345" lon="5.65121">
        <ele>246</ele>
        <time>2020-06-16T09:19:32Z</time>
      </trkpt>
      <trkpt lat="47.05354" lon="5.65114">
        <ele>245</ele>
        <time>2020-06-16T09:19:44Z</time>
      </trkpt>
      <trkpt lat="47.05391" lon="5.65106">
        <ele>244</ele>
        <time>2020-06-16T09:20:14Z</time>
      </trkpt>
      <trkpt lat="47.05396" lon="5.65104">
        <ele>244</ele>
        <time>2020-06-16T09:20:19Z</time>
      </trkpt>
      <trkpt lat="47.05414" lon="5.65101">
        <ele>243</ele>
        <time>2020-06-16T09:20:32Z</time>
      </trkpt>
      <trkpt lat="47.05421" lon="5.65102">
        <ele>242</ele>
        <time>2020-06-16T09:20:36Z</time>
      </trkpt>
      <trkpt lat="47.05426" lon="5.65094">
        <ele>242</ele>
        <time>2020-06-16T09:20:42Z</time>
      </trkpt>
      <trkpt lat="47.05445" lon="5.6509">
        <ele>241</ele>
        <time>2020-06-16T09:20:57Z</time>
      </trkpt>
      <trkpt lat="47.0545" lon="5.65086">
        <ele>240</ele>
        <time>2020-06-16T09:21:03Z</time>
      </trkpt>
      <trkpt lat="47.05458" lon="5.65082">
        <ele>239</ele>
        <time>2020-06-16T09:21:10Z</time>
      </trkpt>
      <trkpt lat="47.0548" lon="5.65083">
        <ele>237</ele>
        <time>2020-06-16T09:21:29Z</time>
      </trkpt>
      <trkpt lat="47.0551" lon="5.65069">
        <ele>234</ele>
        <time>2020-06-16T09:21:53Z</time>
      </trkpt>
      <trkpt lat="47.05531" lon="5.65073">
        <ele>232</ele>
        <time>2020-06-16T09:22:12Z</time>
      </trkpt>
      <trkpt lat="47.05562" lon="5.6506">
        <ele>231</ele>
        <time>2020-06-16T09:22:37Z</time>
      </trkpt>
      <trkpt lat="47.05621" lon="5.65025">
        <ele>233</ele>
        <time>2020-06-16T09:23:08Z</time>
      </trkpt>
      <trkpt lat="47.05634" lon="5.65017">
        <ele>233</ele>
        <time>2020-06-16T09:23:21Z</time>
      </trkpt>
      <trkpt lat="47.05649" lon="5.6502">
        <ele>231</ele>
        <time>2020-06-16T09:23:37Z</time>
      </trkpt>
      <trkpt lat="47.05664" lon="5.65022">
        <ele>231</ele>
        <time>2020-06-16T09:23:49Z</time>
      </trkpt>
      <trkpt lat="47.05679" lon="5.65017">
        <ele>231</ele>
        <time>2020-06-16T09:24:01Z</time>
      </trkpt>
      <trkpt lat="47.05708" lon="5.65025">
        <ele>230</ele>
        <time>2020-06-16T09:24:29Z</time>
      </trkpt>
      <trkpt lat="47.05723" lon="5.65022">
        <ele>230</ele>
        <time>2020-06-16T09:24:44Z</time>
      </trkpt>
      <trkpt lat="47.05738" lon="5.65022">
        <ele>230</ele>
        <time>2020-06-16T09:24:54Z</time>
      </trkpt>
      <trkpt lat="47.05773" lon="5.6501">
        <ele>230</ele>
        <time>2020-06-16T09:25:22Z</time>
      </trkpt>
      <trkpt lat="47.05797" lon="5.65011">
        <ele>230</ele>
        <time>2020-06-16T09:25:40Z</time>
      </trkpt>
      <trkpt lat="47.05806" lon="5.65004">
        <ele>230</ele>
        <time>2020-06-16T09:25:46Z</time>
      </trkpt>
      <trkpt lat="47.0581" lon="5.64999">
        <ele>230</ele>
        <time>2020-06-16T09:25:53Z</time>
      </trkpt>
      <trkpt lat="47.0584" lon="5.64986">
        <ele>229</ele>
        <time>2020-06-16T09:26:47Z</time>
      </trkpt>
      <trkpt lat="47.05857" lon="5.64976">
        <ele>229</ele>
        <time>2020-06-16T09:27:22Z</time>
      </trkpt>
      <trkpt lat="47.05875" lon="5.64971">
        <ele>229</ele>
        <time>2020-06-16T09:28:24Z</time>
      </trkpt>
      <trkpt lat="47.05898" lon="5.64972">
        <ele>229</ele>
        <time>2020-06-16T09:28:55Z</time>
      </trkpt>
      <trkpt lat="47.05913" lon="5.64969">
        <ele>230</ele>
        <time>2020-06-16T09:29:09Z</time>
      </trkpt>
      <trkpt lat="47.05937" lon="5.64962">
        <ele>234</ele>
        <time>2020-06-16T09:29:34Z</time>
      </trkpt>
      <trkpt lat="47.05954" lon="5.64953">
        <ele>235</ele>
        <time>2020-06-16T09:29:48Z</time>
      </trkpt>
      <trkpt lat="47.05972" lon="5.64937">
        <ele>236</ele>
        <time>2020-06-16T09:30:03Z</time>
      </trkpt>
      <trkpt lat="47.05979" lon="5.64902">
        <ele>236</ele>
        <time>2020-06-16T09:30:19Z</time>
      </trkpt>
      <trkpt lat="47.05975" lon="5.6488">
        <ele>236</ele>
        <time>2020-06-16T09:30:30Z</time>
      </trkpt>
      <trkpt lat="47.05968" lon="5.64875">
        <ele>236</ele>
        <time>2020-06-16T09:30:43Z</time>
      </trkpt>
      <trkpt lat="47.05963" lon="5.64867">
        <ele>236</ele>
        <time>2020-06-16T09:30:50Z</time>
      </trkpt>
      <trkpt lat="47.05956" lon="5.6486">
        <ele>236</ele>
        <time>2020-06-16T09:30:55Z</time>
      </trkpt>
      <trkpt lat="47.05951" lon="5.64847">
        <ele>236</ele>
        <time>2020-06-16T09:31:08Z</time>
      </trkpt>
      <trkpt lat="47.05938" lon="5.64824">
        <ele>236</ele>
        <time>2020-06-16T09:31:30Z</time>
      </trkpt>
      <trkpt lat="47.05906" lon="5.64779">
        <ele>237</ele>
        <time>2020-06-16T09:31:56Z</time>
      </trkpt>
      <trkpt lat="47.05893" lon="5.6477">
        <ele>237</ele>
        <time>2020-06-16T09:32:07Z</time>
      </trkpt>
      <trkpt lat="47.05881" lon="5.64754">
        <ele>237</ele>
        <time>2020-06-16T09:32:18Z</time>
      </trkpt>
      <trkpt lat="47.05823" lon="5.64717">
        <ele>236</ele>
        <time>2020-06-16T09:33:02Z</time>
      </trkpt>
      <trkpt lat="47.05796" lon="5.64707">
        <ele>237</ele>
        <time>2020-06-16T09:33:21Z</time>
      </trkpt>
      <trkpt lat="47.0578" lon="5.64686">
        <ele>236</ele>
        <time>2020-06-16T09:33:43Z</time>
      </trkpt>
      <trkpt lat="47.05781" lon="5.64666">
        <ele>236</ele>
        <time>2020-06-16T09:34:08Z</time>
      </trkpt>
      <trkpt lat="47.05756" lon="5.64624">
        <ele>236</ele>
        <time>2020-06-16T09:34:42Z</time>
      </trkpt>
      <trkpt lat="47.0572" lon="5.64582">
        <ele>236</ele>
        <time>2020-06-16T09:35:14Z</time>
      </trkpt>
      <trkpt lat="47.05707" lon="5.64572">
        <ele>236</ele>
        <time>2020-06-16T09:35:26Z</time>
      </trkpt>
      <trkpt lat="47.05666" lon="5.64509">
        <ele>234</ele>
        <time>2020-06-16T09:36:08Z</time>
      </trkpt>
      <trkpt lat="47.05656" lon="5.64492">
        <ele>233</ele>
        <time>2020-06-16T09:36:18Z</time>
      </trkpt>
      <trkpt lat="47.05628" lon="5.64469">
        <ele>233</ele>
        <time>2020-06-16T09:36:54Z</time>
      </trkpt>
      <trkpt lat="47.05618" lon="5.64452">
        <ele>233</ele>
        <time>2020-06-16T09:37:04Z</time>
      </trkpt>
      <trkpt lat="47.05607" lon="5.64412">
        <ele>233</ele>
        <time>2020-06-16T09:37:36Z</time>
      </trkpt>
      <trkpt lat="47.05602" lon="5.64391">
        <ele>233</ele>
        <time>2020-06-16T09:37:56Z</time>
      </trkpt>
      <trkpt lat="47.05582" lon="5.64371">
        <ele>235</ele>
        <time>2020-06-16T09:38:19Z</time>
      </trkpt>
      <trkpt lat="47.05585" lon="5.64349">
        <ele>236</ele>
        <time>2020-06-16T09:38:33Z</time>
      </trkpt>
      <trkpt lat="47.05594" lon="5.64313">
        <ele>237</ele>
        <time>2020-06-16T09:39:04Z</time>
      </trkpt>
      <trkpt lat="47.056" lon="5.64253">
        <ele>239</ele>
        <time>2020-06-16T09:40:00Z</time>
      </trkpt>
      <trkpt lat="47.05585" lon="5.64244">
        <ele>239</ele>
        <time>2020-06-16T09:40:21Z</time>
      </trkpt>
      <trkpt lat="47.05583" lon="5.64221">
        <ele>240</ele>
        <time>2020-06-16T09:40:45Z</time>
      </trkpt>
      <trkpt lat="47.0558" lon="5.64187">
        <ele>241</ele>
        <time>2020-06-16T09:41:09Z</time>
      </trkpt>
      <trkpt lat="47.05573" lon="5.64167">
        <ele>241</ele>
        <time>2020-06-16T09:41:18Z</time>
      </trkpt>
      <trkpt lat="47.05551" lon="5.64148">
        <ele>241</ele>
        <time>2020-06-16T09:41:54Z</time>
      </trkpt>
      <trkpt lat="47.05535" lon="5.64144">
        <ele>241</ele>
        <time>2020-06-16T09:42:04Z</time>
      </trkpt>
      <trkpt lat="47.05524" lon="5.64139">
        <ele>240</ele>
        <time>2020-06-16T09:42:26Z</time>
      </trkpt>
      <trkpt lat="47.05515" lon="5.64116">
        <ele>240</ele>
        <time>2020-06-16T09:42:48Z</time>
      </trkpt>
      <trkpt lat="47.05512" lon="5.64082">
        <ele>240</ele>
        <time>2020-06-16T09:43:12Z</time>
      </trkpt>
      <trkpt lat="47.05483" lon="5.64058">
        <ele>240</ele>
        <time>2020-06-16T09:43:26Z</time>
      </trkpt>
      <trkpt lat="47.05473" lon="5.64054">
        <ele>241</ele>
        <time>2020-06-16T09:43:51Z</time>
      </trkpt>
      <trkpt lat="47.05466" lon="5.64033">
        <ele>239</ele>
        <time>2020-06-16T09:44:26Z</time>
      </trkpt>
      <trkpt lat="47.05444" lon="5.64027">
        <ele>236</ele>
        <time>2020-06-16T09:45:09Z</time>
      </trkpt>
      <trkpt lat="47.05427" lon="5.64022">
        <ele>235</ele>
        <time>2020-06-16T09:45:22Z</time>
      </trkpt>
    </trkseg>
  </trk>
</gpx>